BAW272 KSAN-EGLL
Flight info
| Callsign | BAW272 |
|---|---|
| Flight time | N/A |
| Altitude | 35000 |
| Route | ZZOOO4 MTBAL DCT EED DCT KD45Q DCT KD60U DCT KD75A DCT KP87G/N0498F370 DCT KP12M DCT VETRO DCT OBSAT DCT YAY DCT RIKAL/M085F390 DCT 53N050W 54N040W 55N030W 56N020W DCT PIKIL DCT SOVED/N0492F390 DCT LUTOV DCT NIPIT DCT MCM DCT BOFUM Q37 MALUD Q38 NUGRA |
| Aircraft | B789/H-SDE1E2E3FGHIJ2J3J4J5M1RWXY/LB1D1 |
Departure
| Time | 2026-05-05 15:44 |
|---|---|
| Airport | San Diego International Airport (KSAN) |
Arrival
| Time | N/A |
|---|---|
| Airport | London Heathrow Airport (EGLL) |
| Time | Latitude | Longitude | Altitude | Speed | Heading |
|---|---|---|---|---|---|
| 2026-05-05 14:23 | 32.73263 | -117.20604 | 30 ft | 0 kts | 180° |
| 2026-05-05 15:32 | 32.73264 | -117.20604 | 30 ft | 2 kts | 180° |
| 2026-05-05 15:32 | 32.73288 | -117.20603 | 28 ft | 4 kts | 182° |
| 2026-05-05 15:32 | 32.73306 | -117.20602 | 28 ft | 4 kts | 182° |
| 2026-05-05 15:32 | 32.73330 | -117.20601 | 26 ft | 4 kts | 170° |
| 2026-05-05 15:33 | 32.73341 | -117.20604 | 27 ft | 4 kts | 111° |
| 2026-05-05 15:33 | 32.73342 | -117.20629 | 25 ft | 4 kts | 85° |
| 2026-05-05 15:33 | 32.73340 | -117.20657 | 25 ft | 2 kts | 90° |
| 2026-05-05 15:33 | 32.73340 | -117.20658 | 25 ft | 0 kts | 90° |
| 2026-05-05 15:35 | 32.73340 | -117.20654 | 24 ft | 1 kts | 90° |
| 2026-05-05 15:35 | 32.73340 | -117.20637 | 26 ft | 2 kts | 90° |
| 2026-05-05 15:35 | 32.73340 | -117.20618 | 26 ft | 5 kts | 90° |
| 2026-05-05 15:36 | 32.73350 | -117.20580 | 28 ft | 4 kts | 57° |
| 2026-05-05 15:36 | 32.73370 | -117.20565 | 28 ft | 3 kts | 19° |
| 2026-05-05 15:36 | 32.73398 | -117.20559 | 28 ft | 5 kts | 5° |
| 2026-05-05 15:36 | 32.73434 | -117.20557 | 27 ft | 4 kts | 1° |
| 2026-05-05 15:37 | 32.73436 | -117.20557 | 27 ft | 0 kts | 1° |
| 2026-05-05 15:37 | 32.73458 | -117.20556 | 30 ft | 6 kts | 7° |
| 2026-05-05 15:37 | 32.73507 | -117.20519 | 26 ft | 10 kts | 48° |
| 2026-05-05 15:38 | 32.73552 | -117.20455 | 25 ft | 10 kts | 50° |
| 2026-05-05 15:38 | 32.73589 | -117.20392 | 29 ft | 8 kts | 74° |
| 2026-05-05 15:38 | 32.73585 | -117.20333 | 27 ft | 8 kts | 105° |
| 2026-05-05 15:38 | 32.73567 | -117.20262 | 29 ft | 10 kts | 106° |
| 2026-05-05 15:39 | 32.73541 | -117.20156 | 31 ft | 17 kts | 106° |
| 2026-05-05 15:39 | 32.73501 | -117.19992 | 31 ft | 24 kts | 106° |
| 2026-05-05 15:39 | 32.73451 | -117.19785 | 32 ft | 26 kts | 106° |
| 2026-05-05 15:39 | 32.73401 | -117.19580 | 32 ft | 25 kts | 106° |
| 2026-05-05 15:40 | 32.73355 | -117.19386 | 31 ft | 24 kts | 106° |
| 2026-05-05 15:40 | 32.73307 | -117.19191 | 29 ft | 24 kts | 106° |
| 2026-05-05 15:40 | 32.73263 | -117.19009 | 31 ft | 24 kts | 106° |
| 2026-05-05 15:40 | 32.73214 | -117.18806 | 33 ft | 26 kts | 106° |
| 2026-05-05 15:41 | 32.73163 | -117.18597 | 32 ft | 27 kts | 106° |
| 2026-05-05 15:41 | 32.73113 | -117.18390 | 31 ft | 26 kts | 107° |
| 2026-05-05 15:41 | 32.73063 | -117.18190 | 29 ft | 25 kts | 105° |
| 2026-05-05 15:41 | 32.73017 | -117.17996 | 27 ft | 22 kts | 105° |
| 2026-05-05 15:42 | 32.72979 | -117.17843 | 30 ft | 17 kts | 107° |
| 2026-05-05 15:42 | 32.72950 | -117.17732 | 29 ft | 8 kts | 105° |
| 2026-05-05 15:42 | 32.72951 | -117.17689 | 27 ft | 4 kts | 76° |
| 2026-05-05 15:42 | 32.72967 | -117.17630 | 29 ft | 10 kts | 68° |
| 2026-05-05 15:43 | 32.73011 | -117.17602 | 30 ft | 6 kts | 339° |
| 2026-05-05 15:43 | 32.73043 | -117.17670 | 29 ft | 16 kts | 285° |
| 2026-05-05 15:43 | 32.73101 | -117.17917 | 27 ft | 57 kts | 285° |
| 2026-05-05 15:43 | 32.73273 | -117.18625 | 32 ft | 120 kts | 286° |
| 2026-05-05 15:44 | 32.73561 | -117.19793 | 39 ft | 173 kts | 287° |
| 2026-05-05 15:44 | 32.73935 | -117.21213 | 694 ft | 174 kts | 289° |
| 2026-05-05 15:44 | 32.74280 | -117.22598 | 1679 ft | 176 kts | 284° |
| 2026-05-05 15:44 | 32.74600 | -117.24067 | 2199 ft | 196 kts | 284° |
| 2026-05-05 15:45 | 32.74983 | -117.25713 | 2476 ft | 223 kts | 285° |
| 2026-05-05 15:45 | 32.75421 | -117.27514 | 3244 ft | 225 kts | 285° |
| 2026-05-05 15:45 | 32.75858 | -117.29313 | 4101 ft | 229 kts | 285° |
| 2026-05-05 15:45 | 32.76298 | -117.31135 | 4998 ft | 231 kts | 285° |
| 2026-05-05 15:46 | 32.76505 | -117.33025 | 5840 ft | 236 kts | 263° |
| 2026-05-05 15:46 | 32.75948 | -117.34869 | 6690 ft | 240 kts | 238° |
| 2026-05-05 15:46 | 32.74723 | -117.36229 | 7444 ft | 247 kts | 211° |
| 2026-05-05 15:46 | 32.73048 | -117.36757 | 8171 ft | 257 kts | 183° |
| 2026-05-05 15:47 | 32.71301 | -117.36219 | 8858 ft | 269 kts | 152° |
| 2026-05-05 15:47 | 32.70336 | -117.35274 | 9309 ft | 275 kts | 134° |
| 2026-05-05 15:47 | 32.68702 | -117.32881 | 10184 ft | 282 kts | 130° |
| 2026-05-05 15:47 | 32.67502 | -117.31035 | 10842 ft | 283 kts | 130° |
| 2026-05-05 15:48 | 32.66269 | -117.29195 | 11506 ft | 286 kts | 131° |
| 2026-05-05 15:48 | 32.65018 | -117.27359 | 12174 ft | 288 kts | 131° |
| 2026-05-05 15:48 | 32.63771 | -117.25486 | 12825 ft | 291 kts | 127° |
| 2026-05-05 15:48 | 32.63015 | -117.23251 | 13291 ft | 302 kts | 101° |
| 2026-05-05 15:49 | 32.62712 | -117.20674 | 13333 ft | 327 kts | 95° |
| 2026-05-05 15:49 | 32.62542 | -117.17973 | 13945 ft | 328 kts | 94° |
| 2026-05-05 15:49 | 32.62332 | -117.15260 | 14464 ft | 333 kts | 97° |
| 2026-05-05 15:49 | 32.62058 | -117.12520 | 14999 ft | 336 kts | 97° |
| 2026-05-05 15:50 | 32.62151 | -117.09762 | 15515 ft | 338 kts | 75° |
| 2026-05-05 15:50 | 32.62907 | -117.07105 | 16009 ft | 341 kts | 68° |
| 2026-05-05 15:50 | 32.63790 | -117.04482 | 16542 ft | 344 kts | 66° |
| 2026-05-05 15:50 | 32.64698 | -117.01840 | 17054 ft | 347 kts | 67° |
| 2026-05-05 15:51 | 32.65571 | -116.99159 | 17571 ft | 350 kts | 68° |
| 2026-05-05 15:51 | 32.66399 | -116.96467 | 18071 ft | 353 kts | 73° |
| 2026-05-05 15:51 | 32.66680 | -116.93576 | 18516 ft | 355 kts | 89° |
| 2026-05-05 15:51 | 32.66752 | -116.90596 | 18920 ft | 359 kts | 89° |
| 2026-05-05 15:52 | 32.66828 | -116.87660 | 19316 ft | 361 kts | 89° |
| 2026-05-05 15:52 | 32.66899 | -116.84675 | 19818 ft | 361 kts | 89° |
| 2026-05-05 15:52 | 32.66966 | -116.81684 | 20176 ft | 368 kts | 89° |
| 2026-05-05 15:52 | 32.67275 | -116.78581 | 20146 ft | 389 kts | 71° |
| 2026-05-05 15:53 | 32.68516 | -116.75666 | 20216 ft | 405 kts | 50° |
| 2026-05-05 15:53 | 32.70549 | -116.73303 | 20308 ft | 417 kts | 32° |
| 2026-05-05 15:53 | 32.73142 | -116.71678 | 20393 ft | 429 kts | 18° |
| 2026-05-05 15:53 | 32.75981 | -116.70563 | 20912 ft | 429 kts | 14° |
| 2026-05-05 15:54 | 32.78859 | -116.69565 | 21444 ft | 432 kts | 15° |
| 2026-05-05 15:54 | 32.81709 | -116.68373 | 21929 ft | 437 kts | 21° |
| 2026-05-05 15:54 | 32.84492 | -116.66895 | 22395 ft | 441 kts | 23° |
| 2026-05-05 15:54 | 32.87293 | -116.65373 | 22856 ft | 444 kts | 21° |
| 2026-05-05 15:55 | 32.90162 | -116.63996 | 23321 ft | 446 kts | 19° |
| 2026-05-05 15:55 | 32.93066 | -116.62653 | 23732 ft | 449 kts | 20° |
| 2026-05-05 15:55 | 32.95972 | -116.61223 | 24034 ft | 454 kts | 21° |
| 2026-05-05 15:55 | 32.98898 | -116.59739 | 24335 ft | 459 kts | 20° |
| 2026-05-05 15:56 | 33.01803 | -116.58270 | 24614 ft | 463 kts | 22° |
| 2026-05-05 15:56 | 33.04763 | -116.56707 | 24896 ft | 466 kts | 20° |
| 2026-05-05 15:56 | 33.07781 | -116.55190 | 24980 ft | 476 kts | 20° |
| 2026-05-05 15:56 | 33.10846 | -116.53603 | 25263 ft | 481 kts | 21° |
| 2026-05-05 15:57 | 33.13912 | -116.51969 | 25557 ft | 485 kts | 21° |
| 2026-05-05 15:57 | 33.17019 | -116.50331 | 25830 ft | 489 kts | 20° |
| 2026-05-05 15:57 | 33.20150 | -116.48705 | 26132 ft | 493 kts | 20° |
| 2026-05-05 15:57 | 33.23317 | -116.47056 | 26427 ft | 498 kts | 20° |
| 2026-05-05 15:58 | 33.26498 | -116.45380 | 26714 ft | 502 kts | 20° |
| 2026-05-05 15:58 | 33.29702 | -116.43692 | 27097 ft | 503 kts | 20° |
| 2026-05-05 15:58 | 33.32867 | -116.42029 | 27490 ft | 504 kts | 20° |
| 2026-05-05 15:58 | 33.36128 | -116.40295 | 27735 ft | 510 kts | 24° |
| 2026-05-05 15:59 | 33.39125 | -116.38053 | 28015 ft | 518 kts | 37° |
| 2026-05-05 15:59 | 33.41763 | -116.35097 | 28284 ft | 524 kts | 49° |
| 2026-05-05 15:59 | 33.43981 | -116.31605 | 28490 ft | 529 kts | 54° |
| 2026-05-05 15:59 | 33.46138 | -116.28006 | 28777 ft | 532 kts | 54° |
| 2026-05-05 16:00 | 33.48295 | -116.24374 | 28926 ft | 536 kts | 54° |
| 2026-05-05 16:00 | 33.50479 | -116.20721 | 29061 ft | 542 kts | 54° |
| 2026-05-05 16:00 | 33.52692 | -116.17043 | 29311 ft | 545 kts | 54° |
| 2026-05-05 16:00 | 33.54910 | -116.13335 | 29565 ft | 549 kts | 54° |
| 2026-05-05 16:01 | 33.57133 | -116.09597 | 29809 ft | 552 kts | 54° |
| 2026-05-05 16:01 | 33.59373 | -116.05836 | 30022 ft | 556 kts | 54° |
| 2026-05-05 16:01 | 33.61809 | -116.02244 | 30238 ft | 557 kts | 46° |
| 2026-05-05 16:01 | 33.64423 | -115.98810 | 30685 ft | 553 kts | 46° |
| 2026-05-05 16:02 | 33.66993 | -115.95455 | 30986 ft | 554 kts | 47° |
| 2026-05-05 16:02 | 33.72206 | -115.88525 | 31232 ft | 563 kts | 47° |
| 2026-05-05 16:02 | 33.74844 | -115.85021 | 31424 ft | 565 kts | 47° |
| 2026-05-05 16:03 | 33.77504 | -115.81512 | 31592 ft | 568 kts | 47° |
| 2026-05-05 16:03 | 33.80166 | -115.77982 | 31784 ft | 570 kts | 47° |
| 2026-05-05 16:03 | 33.82830 | -115.74429 | 32027 ft | 571 kts | 47° |
| 2026-05-05 16:03 | 33.85494 | -115.70877 | 32273 ft | 572 kts | 47° |
| 2026-05-05 16:04 | 33.88165 | -115.67324 | 32517 ft | 573 kts | 47° |
| 2026-05-05 16:04 | 33.90839 | -115.63763 | 32722 ft | 574 kts | 47° |
| 2026-05-05 16:04 | 33.93530 | -115.60169 | 32756 ft | 580 kts | 47° |
| 2026-05-05 16:04 | 33.96191 | -115.56607 | 32893 ft | 583 kts | 47° |
| 2026-05-05 16:05 | 33.98898 | -115.52986 | 33523 ft | 575 kts | 47° |
| 2026-05-05 16:05 | 34.01576 | -115.49404 | 33799 ft | 576 kts | 47° |
| 2026-05-05 16:05 | 34.04258 | -115.45809 | 34005 ft | 577 kts | 47° |
| 2026-05-05 16:05 | 34.06941 | -115.42207 | 34263 ft | 576 kts | 47° |
| 2026-05-05 16:06 | 34.09624 | -115.38602 | 34511 ft | 575 kts | 47° |
| 2026-05-05 16:06 | 34.12291 | -115.35017 | 34842 ft | 572 kts | 47° |
| 2026-05-05 16:06 | 34.14957 | -115.31430 | 34911 ft | 576 kts | 47° |
| 2026-05-05 16:07 | 34.20317 | -115.24202 | 34910 ft | 576 kts | 47° |
| 2026-05-05 16:07 | 34.25633 | -115.17022 | 34889 ft | 572 kts | 47° |
| 2026-05-05 16:08 | 34.30934 | -115.09848 | 34911 ft | 572 kts | 48° |
| 2026-05-05 16:08 | 34.36200 | -115.02703 | 34889 ft | 566 kts | 48° |
| 2026-05-05 16:09 | 34.41453 | -114.95566 | 34892 ft | 572 kts | 48° |
| 2026-05-05 16:09 | 34.46729 | -114.88379 | 34886 ft | 574 kts | 48° |
| 2026-05-05 16:10 | 34.52024 | -114.81152 | 34897 ft | 573 kts | 48° |
| 2026-05-05 16:10 | 34.57320 | -114.73910 | 34910 ft | 573 kts | 48° |
| 2026-05-05 16:11 | 34.62609 | -114.66661 | 34927 ft | 573 kts | 48° |
| 2026-05-05 16:11 | 34.70427 | -114.55919 | 34929 ft | 558 kts | 49° |
| 2026-05-05 16:12 | 34.72999 | -114.52378 | 34926 ft | 559 kts | 49° |
| 2026-05-05 16:13 | 34.85328 | -114.34013 | 34878 ft | 567 kts | 52° |
| 2026-05-05 16:13 | 34.90232 | -114.26412 | 34866 ft | 572 kts | 52° |
| 2026-05-05 16:14 | 35.00056 | -114.11218 | 34833 ft | 565 kts | 52° |
| 2026-05-05 16:15 | 35.09711 | -113.96215 | 34822 ft | 570 kts | 52° |
| 2026-05-05 16:16 | 35.19493 | -113.80947 | 34950 ft | 570 kts | 53° |
| 2026-05-05 16:17 | 35.26001 | -113.70752 | 34905 ft | 572 kts | 53° |
| 2026-05-05 16:18 | 35.34166 | -113.57919 | 34860 ft | 571 kts | 53° |
| 2026-05-05 16:19 | 35.40632 | -113.47720 | 34829 ft | 565 kts | 53° |
| 2026-05-05 16:19 | 35.47863 | -113.36281 | 34839 ft | 572 kts | 53° |
| 2026-05-05 16:20 | 35.57604 | -113.20813 | 34845 ft | 571 kts | 53° |
| 2026-05-05 16:22 | 35.69752 | -113.01424 | 34863 ft | 571 kts | 53° |
| 2026-05-05 16:23 | 35.79369 | -112.85995 | 34859 ft | 568 kts | 53° |
| 2026-05-05 16:23 | 35.86550 | -112.74432 | 34856 ft | 571 kts | 53° |
| 2026-05-05 16:24 | 35.91414 | -112.66576 | 34871 ft | 577 kts | 53° |
| 2026-05-05 16:25 | 35.98705 | -112.54769 | 34873 ft | 574 kts | 53° |
| 2026-05-05 16:25 | 36.05914 | -112.43054 | 34932 ft | 565 kts | 53° |
| 2026-05-05 16:26 | 36.15494 | -112.27421 | 34956 ft | 572 kts | 53° |
| 2026-05-05 16:27 | 36.20288 | -112.19576 | 34935 ft | 571 kts | 54° |
| 2026-05-05 16:27 | 36.25082 | -112.11706 | 34876 ft | 572 kts | 54° |
| 2026-05-05 16:28 | 36.29908 | -112.03769 | 34840 ft | 581 kts | 54° |
| 2026-05-05 16:28 | 36.34761 | -111.95770 | 34843 ft | 579 kts | 54° |
| 2026-05-05 16:29 | 36.39572 | -111.87817 | 34839 ft | 580 kts | 53° |
| 2026-05-05 16:29 | 36.44401 | -111.79820 | 34857 ft | 578 kts | 54° |
| 2026-05-05 16:30 | 36.49220 | -111.71819 | 34817 ft | 577 kts | 54° |
| 2026-05-05 16:30 | 36.54020 | -111.63831 | 34818 ft | 576 kts | 54° |
| 2026-05-05 16:31 | 36.58818 | -111.55828 | 34827 ft | 577 kts | 54° |
| 2026-05-05 16:31 | 36.63615 | -111.47808 | 34843 ft | 576 kts | 54° |
| 2026-05-05 16:32 | 36.68397 | -111.39792 | 34874 ft | 575 kts | 54° |
| 2026-05-05 16:32 | 36.73135 | -111.31833 | 34875 ft | 570 kts | 54° |
| 2026-05-05 16:33 | 36.77830 | -111.23927 | 34875 ft | 571 kts | 54° |
| 2026-05-05 16:33 | 36.82555 | -111.15954 | 34861 ft | 571 kts | 54° |
| 2026-05-05 16:34 | 36.87287 | -111.07945 | 34835 ft | 576 kts | 54° |
| 2026-05-05 16:34 | 36.92059 | -110.99856 | 34815 ft | 578 kts | 54° |
| 2026-05-05 16:35 | 36.96816 | -110.91766 | 34806 ft | 576 kts | 54° |
| 2026-05-05 16:35 | 37.01570 | -110.83666 | 34834 ft | 576 kts | 54° |
| 2026-05-05 16:36 | 37.06254 | -110.75667 | 34797 ft | 573 kts | 54° |
| 2026-05-05 16:36 | 37.10998 | -110.67542 | 34798 ft | 579 kts | 54° |
| 2026-05-05 16:37 | 37.15747 | -110.59393 | 34799 ft | 578 kts | 55° |
| 2026-05-05 16:37 | 37.20474 | -110.51258 | 34799 ft | 578 kts | 55° |
| 2026-05-05 16:38 | 37.25211 | -110.43087 | 34785 ft | 579 kts | 54° |
| 2026-05-05 16:38 | 37.29942 | -110.34909 | 34788 ft | 583 kts | 54° |
| 2026-05-05 16:39 | 37.34695 | -110.26669 | 34800 ft | 581 kts | 54° |
| 2026-05-05 16:39 | 37.39386 | -110.18521 | 34803 ft | 571 kts | 54° |
| 2026-05-05 16:40 | 37.44039 | -110.10412 | 34799 ft | 573 kts | 54° |
| 2026-05-05 16:40 | 37.48746 | -110.02200 | 34805 ft | 580 kts | 54° |
| 2026-05-05 16:41 | 37.53793 | -109.94280 | 34808 ft | 579 kts | 50° |
| 2026-05-05 16:41 | 37.58928 | -109.86547 | 34810 ft | 578 kts | 50° |
| 2026-05-05 16:42 | 37.64063 | -109.78765 | 34790 ft | 577 kts | 50° |
| 2026-05-05 16:42 | 37.69221 | -109.70953 | 34805 ft | 576 kts | 50° |
| 2026-05-05 16:43 | 37.74305 | -109.63217 | 34900 ft | 571 kts | 50° |
| 2026-05-05 16:43 | 37.79402 | -109.55454 | 34893 ft | 574 kts | 50° |
| 2026-05-05 16:44 | 37.84495 | -109.47674 | 34860 ft | 574 kts | 50° |
| 2026-05-05 16:44 | 37.89556 | -109.39925 | 34822 ft | 578 kts | 49° |
| 2026-05-05 16:45 | 37.94694 | -109.32040 | 34803 ft | 580 kts | 50° |
| 2026-05-05 16:45 | 37.99803 | -109.24178 | 34790 ft | 571 kts | 50° |
| 2026-05-05 16:46 | 38.04828 | -109.16432 | 34789 ft | 568 kts | 50° |
| 2026-05-05 16:46 | 38.09856 | -109.08657 | 34795 ft | 572 kts | 50° |
| 2026-05-05 16:47 | 38.14935 | -109.00789 | 34801 ft | 578 kts | 50° |
| 2026-05-05 16:47 | 38.20015 | -108.92896 | 34796 ft | 576 kts | 50° |
| 2026-05-05 16:48 | 38.25079 | -108.85013 | 34793 ft | 575 kts | 50° |
| 2026-05-05 16:48 | 38.30127 | -108.77131 | 34771 ft | 570 kts | 50° |
| 2026-05-05 16:49 | 38.35155 | -108.69267 | 34796 ft | 576 kts | 50° |
| 2026-05-05 16:49 | 38.40216 | -108.61325 | 34796 ft | 576 kts | 50° |
| 2026-05-05 16:50 | 38.45261 | -108.53395 | 34791 ft | 575 kts | 50° |
| 2026-05-05 16:50 | 38.50289 | -108.45467 | 34775 ft | 575 kts | 50° |
| 2026-05-05 16:51 | 38.55306 | -108.37541 | 34774 ft | 580 kts | 50° |
| 2026-05-05 16:51 | 38.60369 | -108.29519 | 34778 ft | 574 kts | 50° |
| 2026-05-05 16:52 | 38.65353 | -108.21606 | 34801 ft | 571 kts | 50° |
| 2026-05-05 16:52 | 38.70340 | -108.13669 | 34878 ft | 572 kts | 50° |
| 2026-05-05 16:53 | 38.75330 | -108.05704 | 34885 ft | 573 kts | 50° |
| 2026-05-05 16:53 | 38.80318 | -107.97725 | 34886 ft | 574 kts | 50° |
| 2026-05-05 16:54 | 38.85303 | -107.89729 | 34866 ft | 574 kts | 50° |
| 2026-05-05 16:54 | 38.90270 | -107.81742 | 34848 ft | 567 kts | 50° |
| 2026-05-05 16:55 | 38.95171 | -107.73843 | 34793 ft | 565 kts | 50° |
| 2026-05-05 16:55 | 39.00103 | -107.65876 | 34798 ft | 573 kts | 50° |
| 2026-05-05 16:56 | 39.05025 | -107.57900 | 34797 ft | 571 kts | 50° |
| 2026-05-05 16:56 | 39.09964 | -107.49882 | 34798 ft | 571 kts | 50° |
| 2026-05-05 16:57 | 39.14898 | -107.41848 | 34790 ft | 572 kts | 50° |
| 2026-05-05 16:57 | 39.19810 | -107.33831 | 34777 ft | 567 kts | 50° |
| 2026-05-05 16:58 | 39.24700 | -107.25831 | 34762 ft | 568 kts | 50° |
| 2026-05-05 16:58 | 39.29585 | -107.17818 | 34744 ft | 568 kts | 50° |
| 2026-05-05 16:59 | 39.33675 | -107.11093 | 34742 ft | 568 kts | 50° |
| 2026-05-05 16:59 | 39.39346 | -107.01746 | 34799 ft | 571 kts | 50° |
| 2026-05-05 17:00 | 39.44278 | -106.93596 | 34852 ft | 576 kts | 50° |
| 2026-05-05 17:00 | 39.49203 | -106.85430 | 34723 ft | 574 kts | 50° |
| 2026-05-05 17:01 | 39.54121 | -106.77262 | 34723 ft | 574 kts | 50° |
| 2026-05-05 17:01 | 39.58995 | -106.69143 | 34717 ft | 573 kts | 50° |
| 2026-05-05 17:02 | 39.63920 | -106.60922 | 34711 ft | 581 kts | 50° |
| 2026-05-05 17:02 | 39.68038 | -106.54026 | 34717 ft | 580 kts | 50° |
| 2026-05-05 17:03 | 39.72969 | -106.45751 | 34729 ft | 579 kts | 50° |
| 2026-05-05 17:03 | 39.77866 | -106.37511 | 34704 ft | 573 kts | 50° |
| 2026-05-05 17:04 | 39.82740 | -106.29293 | 34710 ft | 576 kts | 50° |
| 2026-05-05 17:04 | 39.87648 | -106.20992 | 34710 ft | 579 kts | 50° |
| 2026-05-05 17:05 | 39.92547 | -106.12684 | 34716 ft | 577 kts | 50° |
| 2026-05-05 17:05 | 39.97405 | -106.04426 | 34740 ft | 577 kts | 50° |
| 2026-05-05 17:06 | 40.01982 | -105.95736 | 34781 ft | 582 kts | 58° |
| 2026-05-05 17:06 | 40.06084 | -105.86702 | 34792 ft | 577 kts | 58° |
| 2026-05-05 17:07 | 40.08137 | -105.82223 | 34989 ft | 575 kts | 57° |
| 2026-05-05 17:07 | 40.10201 | -105.77735 | 34977 ft | 576 kts | 58° |
| 2026-05-05 17:07 | 40.14294 | -105.68723 | 34941 ft | 577 kts | 58° |
| 2026-05-05 17:08 | 40.18394 | -105.59708 | 34928 ft | 579 kts | 58° |
| 2026-05-05 17:08 | 40.22528 | -105.50575 | 34971 ft | 584 kts | 58° |
| 2026-05-05 17:09 | 40.26653 | -105.41434 | 35030 ft | 582 kts | 58° |
| 2026-05-05 17:09 | 40.30765 | -105.32303 | 35050 ft | 581 kts | 58° |
| 2026-05-05 17:10 | 40.34857 | -105.23180 | 35062 ft | 580 kts | 58° |
| 2026-05-05 17:10 | 40.38931 | -105.14080 | 35061 ft | 577 kts | 58° |
| 2026-05-05 17:11 | 40.42991 | -105.04977 | 35083 ft | 578 kts | 58° |
| 2026-05-05 17:11 | 40.47021 | -104.95919 | 35054 ft | 578 kts | 58° |
| 2026-05-05 17:12 | 40.51088 | -104.86748 | 35062 ft | 584 kts | 58° |
| 2026-05-05 17:12 | 40.55175 | -104.77503 | 35074 ft | 585 kts | 58° |
| 2026-05-05 17:13 | 40.59254 | -104.68251 | 35072 ft | 583 kts | 58° |
| 2026-05-05 17:13 | 40.63315 | -104.59011 | 35109 ft | 582 kts | 58° |
| 2026-05-05 17:14 | 40.67329 | -104.49847 | 35086 ft | 572 kts | 58° |
| 2026-05-05 17:14 | 40.71279 | -104.40810 | 35089 ft | 574 kts | 58° |
| 2026-05-05 17:15 | 40.75283 | -104.31614 | 35117 ft | 574 kts | 58° |
| 2026-05-05 17:15 | 40.79229 | -104.22527 | 35119 ft | 574 kts | 59° |
| 2026-05-05 17:16 | 40.83212 | -104.13328 | 35142 ft | 582 kts | 58° |
| 2026-05-05 17:16 | 40.87238 | -104.03997 | 35152 ft | 582 kts | 59° |
| 2026-05-05 17:17 | 40.91235 | -103.94710 | 35147 ft | 581 kts | 59° |
| 2026-05-05 17:17 | 40.95223 | -103.85412 | 35082 ft | 576 kts | 59° |
| 2026-05-05 17:18 | 40.99157 | -103.76215 | 35036 ft | 576 kts | 59° |
| 2026-05-05 17:18 | 41.03103 | -103.66959 | 35056 ft | 578 kts | 59° |
| 2026-05-05 17:19 | 41.07025 | -103.57730 | 35056 ft | 578 kts | 59° |
| 2026-05-05 17:19 | 41.10968 | -103.48426 | 35042 ft | 578 kts | 59° |
| 2026-05-05 17:20 | 41.14928 | -103.39054 | 35039 ft | 586 kts | 59° |
| 2026-05-05 17:20 | 41.18897 | -103.29623 | 35025 ft | 584 kts | 59° |
| 2026-05-05 17:21 | 41.22848 | -103.20214 | 35064 ft | 583 kts | 59° |
| 2026-05-05 17:22 | 41.28721 | -103.06167 | 35046 ft | 580 kts | 59° |
| 2026-05-05 17:22 | 41.32621 | -102.96803 | 35035 ft | 582 kts | 59° |
| 2026-05-05 17:23 | 41.36538 | -102.87366 | 35023 ft | 582 kts | 59° |
| 2026-05-05 17:23 | 41.40452 | -102.77912 | 35013 ft | 582 kts | 59° |
| 2026-05-05 17:24 | 41.44369 | -102.68417 | 35007 ft | 586 kts | 59° |
| 2026-05-05 17:24 | 41.48297 | -102.58863 | 35015 ft | 586 kts | 59° |
| 2026-05-05 17:25 | 41.52205 | -102.49328 | 35025 ft | 586 kts | 59° |
| 2026-05-05 17:25 | 41.56078 | -102.39847 | 35017 ft | 579 kts | 59° |
| 2026-05-05 17:26 | 41.59931 | -102.30391 | 35024 ft | 585 kts | 59° |
| 2026-05-05 17:26 | 41.63811 | -102.20829 | 35026 ft | 585 kts | 59° |
| 2026-05-05 17:27 | 41.67686 | -102.11256 | 35034 ft | 585 kts | 59° |
| 2026-05-05 17:27 | 41.71552 | -102.01667 | 35040 ft | 586 kts | 59° |
| 2026-05-05 17:28 | 41.75434 | -101.92013 | 35041 ft | 590 kts | 59° |
| 2026-05-05 17:28 | 41.79283 | -101.82404 | 35043 ft | 588 kts | 59° |
| 2026-05-05 17:29 | 41.83128 | -101.72779 | 35041 ft | 581 kts | 59° |
| 2026-05-05 17:29 | 41.86937 | -101.63211 | 35046 ft | 583 kts | 59° |
| 2026-05-05 17:30 | 41.90768 | -101.53553 | 35049 ft | 586 kts | 59° |
| 2026-05-05 17:30 | 41.94600 | -101.43862 | 35054 ft | 586 kts | 59° |
| 2026-05-05 17:31 | 41.98391 | -101.34246 | 35060 ft | 586 kts | 59° |
| 2026-05-05 17:31 | 42.02201 | -101.24546 | 35057 ft | 588 kts | 59° |
| 2026-05-05 17:32 | 42.06025 | -101.14778 | 35056 ft | 589 kts | 59° |
| 2026-05-05 17:32 | 42.09830 | -101.05023 | 35061 ft | 586 kts | 59° |
| 2026-05-05 17:33 | 42.13606 | -100.95317 | 35064 ft | 584 kts | 59° |
| 2026-05-05 17:33 | 42.17372 | -100.85599 | 35061 ft | 586 kts | 59° |
| 2026-05-05 17:34 | 42.21142 | -100.75838 | 35065 ft | 587 kts | 59° |
| 2026-05-05 17:34 | 42.24883 | -100.66121 | 35067 ft | 586 kts | 60° |
| 2026-05-05 17:35 | 42.28636 | -100.56338 | 35075 ft | 587 kts | 60° |
| 2026-05-05 17:35 | 42.32392 | -100.46516 | 35070 ft | 588 kts | 60° |
| 2026-05-05 17:36 | 42.36136 | -100.36688 | 35064 ft | 587 kts | 60° |
| 2026-05-05 17:36 | 42.39872 | -100.26851 | 35070 ft | 587 kts | 60° |
| 2026-05-05 17:37 | 42.43598 | -100.17005 | 35069 ft | 587 kts | 60° |
| 2026-05-05 17:37 | 42.47291 | -100.07213 | 35072 ft | 588 kts | 60° |
| 2026-05-05 17:38 | 42.51007 | -99.97319 | 35077 ft | 589 kts | 60° |
| 2026-05-05 17:38 | 42.54675 | -99.87372 | 35075 ft | 589 kts | 60° |
| 2026-05-05 17:39 | 42.58352 | -99.77424 | 35064 ft | 591 kts | 60° |
| 2026-05-05 17:39 | 42.62024 | -99.67429 | 35062 ft | 591 kts | 60° |
| 2026-05-05 17:40 | 42.65666 | -99.57485 | 35058 ft | 585 kts | 60° |
| 2026-05-05 17:40 | 42.69289 | -99.47566 | 35055 ft | 586 kts | 60° |
| 2026-05-05 17:41 | 42.72911 | -99.37604 | 35055 ft | 589 kts | 60° |
| 2026-05-05 17:41 | 42.76513 | -99.27669 | 35058 ft | 589 kts | 60° |
| 2026-05-05 17:42 | 42.80134 | -99.17640 | 35056 ft | 589 kts | 60° |
| 2026-05-05 17:42 | 42.83742 | -99.07618 | 35061 ft | 590 kts | 60° |
| 2026-05-05 17:43 | 42.87357 | -98.97533 | 35062 ft | 592 kts | 60° |
| 2026-05-05 17:43 | 42.90955 | -98.87462 | 35062 ft | 588 kts | 60° |
| 2026-05-05 17:44 | 42.94511 | -98.77476 | 35058 ft | 588 kts | 60° |
| 2026-05-05 17:44 | 42.98076 | -98.67424 | 35060 ft | 589 kts | 60° |
| 2026-05-05 17:45 | 43.01650 | -98.57313 | 35065 ft | 591 kts | 60° |
| 2026-05-05 17:45 | 43.05214 | -98.47190 | 35059 ft | 590 kts | 61° |
| 2026-05-05 17:46 | 43.08768 | -98.37062 | 35048 ft | 590 kts | 61° |
| 2026-05-05 17:46 | 43.12309 | -98.26932 | 35047 ft | 591 kts | 61° |
| 2026-05-05 17:47 | 43.15852 | -98.16759 | 35052 ft | 590 kts | 61° |
| 2026-05-05 17:47 | 43.19373 | -98.06609 | 35054 ft | 589 kts | 61° |
| 2026-05-05 17:48 | 43.22862 | -97.96519 | 35059 ft | 589 kts | 61° |
| 2026-05-05 17:48 | 43.25798 | -97.87997 | 35064 ft | 590 kts | 61° |
| 2026-05-05 17:49 | 43.29303 | -97.77790 | 35068 ft | 592 kts | 61° |
| 2026-05-05 17:49 | 43.32783 | -97.67614 | 35068 ft | 593 kts | 61° |
| 2026-05-05 17:50 | 43.36275 | -97.57365 | 35064 ft | 592 kts | 61° |
| 2026-05-05 17:50 | 43.39758 | -97.47109 | 35053 ft | 592 kts | 61° |
| 2026-05-05 17:51 | 43.43225 | -97.36854 | 35054 ft | 590 kts | 61° |
| 2026-05-05 17:51 | 43.46676 | -97.26618 | 35034 ft | 590 kts | 61° |
| 2026-05-05 17:52 | 43.50126 | -97.16338 | 35029 ft | 591 kts | 61° |
| 2026-05-05 17:52 | 43.53553 | -97.06090 | 35011 ft | 593 kts | 62° |
| 2026-05-05 17:53 | 43.56997 | -96.95750 | 35006 ft | 593 kts | 62° |
| 2026-05-05 17:53 | 43.60426 | -96.85416 | 35019 ft | 592 kts | 62° |
| 2026-05-05 17:54 | 43.63846 | -96.75069 | 35026 ft | 592 kts | 62° |
| 2026-05-05 17:54 | 43.67247 | -96.64737 | 35009 ft | 590 kts | 62° |
| 2026-05-05 17:55 | 43.70641 | -96.54394 | 35005 ft | 590 kts | 62° |
| 2026-05-05 17:55 | 43.73998 | -96.44117 | 35010 ft | 590 kts | 62° |
| 2026-05-05 17:56 | 43.77373 | -96.33750 | 35009 ft | 591 kts | 62° |
| 2026-05-05 17:56 | 43.80741 | -96.23357 | 35004 ft | 591 kts | 62° |
| 2026-05-05 17:57 | 43.84105 | -96.12942 | 35002 ft | 592 kts | 62° |
| 2026-05-05 17:57 | 43.87439 | -96.02575 | 35036 ft | 592 kts | 62° |
| 2026-05-05 17:58 | 43.90772 | -95.92171 | 34984 ft | 588 kts | 62° |
| 2026-05-05 17:58 | 43.94087 | -95.81788 | 34982 ft | 588 kts | 62° |
| 2026-05-05 17:59 | 43.97389 | -95.71395 | 34982 ft | 588 kts | 62° |
| 2026-05-05 17:59 | 44.00687 | -95.60983 | 34979 ft | 590 kts | 62° |
| 2026-05-05 18:00 | 44.03962 | -95.50597 | 34977 ft | 591 kts | 62° |
| 2026-05-05 18:00 | 44.07258 | -95.40102 | 34978 ft | 591 kts | 62° |
| 2026-05-05 18:01 | 44.10537 | -95.29620 | 35022 ft | 590 kts | 62° |
| 2026-05-05 18:01 | 44.13778 | -95.19213 | 34976 ft | 583 kts | 62° |
| 2026-05-05 18:02 | 44.17000 | -95.08842 | 34973 ft | 584 kts | 62° |
| 2026-05-05 18:02 | 44.20221 | -94.98412 | 34973 ft | 586 kts | 62° |
| 2026-05-05 18:03 | 44.23421 | -94.88020 | 34981 ft | 585 kts | 62° |
| 2026-05-05 18:03 | 44.26619 | -94.77586 | 34978 ft | 584 kts | 62° |
| 2026-05-05 18:04 | 44.29807 | -94.67150 | 34975 ft | 584 kts | 62° |
| 2026-05-05 18:04 | 44.32981 | -94.56711 | 34974 ft | 584 kts | 62° |
| 2026-05-05 18:05 | 44.36132 | -94.46303 | 34973 ft | 578 kts | 63° |
| 2026-05-05 18:05 | 44.39239 | -94.36012 | 34973 ft | 579 kts | 63° |
| 2026-05-05 18:06 | 44.42362 | -94.25612 | 34980 ft | 581 kts | 63° |
| 2026-05-05 18:06 | 44.45485 | -94.15173 | 34971 ft | 581 kts | 63° |
| 2026-05-05 18:07 | 44.48602 | -94.04715 | 34964 ft | 582 kts | 63° |
| 2026-05-05 18:07 | 44.52369 | -93.94840 | 34968 ft | 572 kts | 51° |
| 2026-05-05 18:08 | 44.56705 | -93.85496 | 34965 ft | 571 kts | 51° |
| 2026-05-05 18:08 | 44.60967 | -93.76187 | 34962 ft | 565 kts | 51° |
| 2026-05-05 18:09 | 44.65204 | -93.66957 | 34950 ft | 566 kts | 51° |
| 2026-05-05 18:09 | 44.69455 | -93.57639 | 34947 ft | 567 kts | 51° |
| 2026-05-05 18:10 | 44.73705 | -93.48301 | 34943 ft | 568 kts | 51° |
| 2026-05-05 18:10 | 44.77960 | -93.38923 | 34941 ft | 568 kts | 52° |
| 2026-05-05 18:11 | 44.82209 | -93.29523 | 34946 ft | 568 kts | 52° |
| 2026-05-05 18:11 | 44.86411 | -93.20200 | 34942 ft | 566 kts | 52° |
| 2026-05-05 18:12 | 44.90625 | -93.10817 | 34951 ft | 566 kts | 52° |
| 2026-05-05 18:12 | 44.94838 | -93.01408 | 34948 ft | 567 kts | 52° |
| 2026-05-05 18:13 | 44.99031 | -92.92008 | 34947 ft | 562 kts | 52° |
| 2026-05-05 18:13 | 45.03188 | -92.82667 | 34937 ft | 562 kts | 52° |
| 2026-05-05 18:14 | 45.07351 | -92.73275 | 34935 ft | 563 kts | 53° |
| 2026-05-05 18:14 | 45.11502 | -92.63879 | 34921 ft | 564 kts | 52° |
| 2026-05-05 18:15 | 45.15669 | -92.54419 | 34920 ft | 566 kts | 53° |
| 2026-05-05 18:15 | 45.19777 | -92.45051 | 34931 ft | 559 kts | 53° |
| 2026-05-05 18:16 | 45.23871 | -92.35702 | 34930 ft | 558 kts | 53° |
| 2026-05-05 18:16 | 45.27962 | -92.26317 | 34927 ft | 560 kts | 53° |
| 2026-05-05 18:17 | 45.32063 | -92.16880 | 34917 ft | 561 kts | 53° |
| 2026-05-05 18:17 | 45.36160 | -92.07420 | 34912 ft | 561 kts | 53° |
| 2026-05-05 18:18 | 45.40234 | -91.97976 | 34902 ft | 555 kts | 54° |
| 2026-05-05 18:18 | 45.44237 | -91.88681 | 34901 ft | 555 kts | 54° |
| 2026-05-05 18:19 | 45.48267 | -91.79279 | 34927 ft | 557 kts | 54° |
| 2026-05-05 18:19 | 45.52295 | -91.69854 | 34922 ft | 557 kts | 54° |
| 2026-05-05 18:20 | 45.56316 | -91.60415 | 34914 ft | 556 kts | 54° |
| 2026-05-05 18:20 | 45.60318 | -91.50983 | 34914 ft | 553 kts | 54° |
| 2026-05-05 18:21 | 45.64268 | -91.41652 | 34904 ft | 552 kts | 54° |
| 2026-05-05 18:21 | 45.68238 | -91.32234 | 34901 ft | 553 kts | 55° |
| 2026-05-05 18:22 | 45.72202 | -91.22802 | 34898 ft | 553 kts | 55° |
| 2026-05-05 18:22 | 45.76160 | -91.13353 | 34892 ft | 554 kts | 55° |
| 2026-05-05 18:23 | 45.80120 | -91.03864 | 34895 ft | 552 kts | 55° |
| 2026-05-05 18:23 | 45.84048 | -90.94425 | 34895 ft | 551 kts | 55° |
| 2026-05-05 18:24 | 45.87978 | -90.84946 | 34893 ft | 552 kts | 55° |
| 2026-05-05 18:24 | 45.91897 | -90.75459 | 34887 ft | 553 kts | 56° |
| 2026-05-05 18:25 | 45.95794 | -90.65995 | 34889 ft | 554 kts | 56° |
| 2026-05-05 18:25 | 45.99715 | -90.56440 | 34883 ft | 552 kts | 56° |
| 2026-05-05 18:26 | 46.03597 | -90.46947 | 34876 ft | 550 kts | 56° |
| 2026-05-05 18:26 | 46.07476 | -90.37430 | 34880 ft | 551 kts | 56° |
| 2026-05-05 18:27 | 46.11346 | -90.27900 | 34881 ft | 551 kts | 56° |
| 2026-05-05 18:27 | 46.15190 | -90.18404 | 34880 ft | 552 kts | 56° |
| 2026-05-05 18:28 | 46.20968 | -90.04064 | 34871 ft | 548 kts | 56° |
| 2026-05-05 18:28 | 46.24789 | -89.94545 | 34865 ft | 548 kts | 57° |
| 2026-05-05 18:29 | 46.28609 | -89.84991 | 34866 ft | 549 kts | 57° |
| 2026-05-05 18:29 | 46.32428 | -89.75407 | 34874 ft | 550 kts | 57° |
| 2026-05-05 18:30 | 46.36243 | -89.65801 | 34869 ft | 551 kts | 57° |
| 2026-05-05 18:30 | 46.40043 | -89.56194 | 34860 ft | 545 kts | 57° |
| 2026-05-05 18:31 | 46.43805 | -89.46657 | 34852 ft | 544 kts | 57° |
| 2026-05-05 18:31 | 46.47537 | -89.37159 | 34853 ft | 545 kts | 57° |
| 2026-05-05 18:32 | 46.51294 | -89.27564 | 34852 ft | 546 kts | 57° |
| 2026-05-05 18:32 | 46.55045 | -89.17951 | 34841 ft | 547 kts | 57° |
| 2026-05-05 18:33 | 46.58794 | -89.08311 | 34854 ft | 547 kts | 58° |
| 2026-05-05 18:33 | 46.62517 | -88.98699 | 34838 ft | 544 kts | 58° |
| 2026-05-05 18:34 | 46.66223 | -88.89102 | 34839 ft | 544 kts | 58° |
| 2026-05-05 18:34 | 46.69927 | -88.79472 | 34830 ft | 545 kts | 58° |
| 2026-05-05 18:35 | 46.73629 | -88.69817 | 34826 ft | 547 kts | 58° |
| 2026-05-05 18:35 | 46.77309 | -88.60181 | 34833 ft | 547 kts | 58° |
| 2026-05-05 18:36 | 46.81007 | -88.50466 | 34823 ft | 547 kts | 58° |
| 2026-05-05 18:36 | 46.84694 | -88.40744 | 34826 ft | 547 kts | 58° |
| 2026-05-05 18:37 | 46.87754 | -88.32649 | 34819 ft | 548 kts | 58° |
| 2026-05-05 18:37 | 46.92039 | -88.21271 | 34820 ft | 549 kts | 58° |
| 2026-05-05 18:38 | 46.95713 | -88.11480 | 34850 ft | 549 kts | 58° |
| 2026-05-05 18:38 | 46.99359 | -88.01723 | 34825 ft | 544 kts | 58° |
| 2026-05-05 18:39 | 47.02755 | -87.94009 | 34822 ft | 542 kts | 52° |
| 2026-05-05 18:39 | 47.07010 | -87.84819 | 34819 ft | 546 kts | 53° |
| 2026-05-05 18:40 | 47.11245 | -87.75554 | 34819 ft | 546 kts | 53° |
| 2026-05-05 18:40 | 47.15488 | -87.66302 | 34817 ft | 546 kts | 53° |
| 2026-05-05 18:41 | 47.19695 | -87.57056 | 34809 ft | 541 kts | 53° |
| 2026-05-05 18:41 | 47.23854 | -87.47915 | 34803 ft | 541 kts | 53° |
| 2026-05-05 18:42 | 47.28039 | -87.38666 | 34800 ft | 543 kts | 53° |
| 2026-05-05 18:42 | 47.32225 | -87.29393 | 34799 ft | 543 kts | 53° |
| 2026-05-05 18:43 | 47.36411 | -87.20087 | 34817 ft | 543 kts | 53° |
| 2026-05-05 18:43 | 47.40555 | -87.10839 | 34813 ft | 539 kts | 53° |
| 2026-05-05 18:44 | 47.44696 | -87.01574 | 34811 ft | 541 kts | 54° |
| 2026-05-05 18:44 | 47.48812 | -86.92326 | 34813 ft | 542 kts | 54° |
| 2026-05-05 18:45 | 47.52951 | -86.83001 | 34814 ft | 542 kts | 54° |
| 2026-05-05 18:45 | 47.57082 | -86.73658 | 34810 ft | 541 kts | 54° |
| 2026-05-05 18:46 | 47.61185 | -86.64350 | 34807 ft | 538 kts | 54° |
| 2026-05-05 18:46 | 47.65288 | -86.55011 | 34809 ft | 542 kts | 54° |
| 2026-05-05 18:47 | 47.69397 | -86.45620 | 34806 ft | 542 kts | 54° |
| 2026-05-05 18:47 | 47.73475 | -86.36273 | 34805 ft | 542 kts | 54° |
| 2026-05-05 18:48 | 47.77561 | -86.26873 | 34793 ft | 538 kts | 54° |
| 2026-05-05 18:48 | 47.81614 | -86.17520 | 34791 ft | 539 kts | 54° |
| 2026-05-05 18:49 | 47.85694 | -86.08070 | 34787 ft | 543 kts | 54° |
| 2026-05-05 18:49 | 47.89736 | -85.98672 | 34788 ft | 542 kts | 54° |
| 2026-05-05 18:50 | 47.93795 | -85.89207 | 34782 ft | 542 kts | 55° |
| 2026-05-05 18:50 | 47.97831 | -85.79758 | 34782 ft | 538 kts | 55° |
| 2026-05-05 18:51 | 48.01846 | -85.70332 | 34768 ft | 539 kts | 55° |
| 2026-05-05 18:51 | 48.05867 | -85.60853 | 34768 ft | 540 kts | 55° |
| 2026-05-05 18:52 | 48.09892 | -85.51334 | 34769 ft | 541 kts | 55° |
| 2026-05-05 18:52 | 48.13909 | -85.41800 | 34784 ft | 541 kts | 56° |
| 2026-05-05 18:53 | 48.17905 | -85.32281 | 34751 ft | 537 kts | 56° |
| 2026-05-05 18:53 | 48.21850 | -85.22854 | 34737 ft | 537 kts | 56° |
| 2026-05-05 18:54 | 48.25810 | -85.13353 | 34738 ft | 537 kts | 56° |
| 2026-05-05 18:54 | 48.29773 | -85.03815 | 34728 ft | 538 kts | 56° |
| 2026-05-05 18:55 | 48.33724 | -84.94271 | 34724 ft | 538 kts | 56° |
| 2026-05-05 18:55 | 48.37646 | -84.84760 | 34709 ft | 533 kts | 56° |
| 2026-05-05 18:56 | 48.41564 | -84.75233 | 34703 ft | 538 kts | 56° |
| 2026-05-05 18:56 | 48.45493 | -84.65637 | 34699 ft | 538 kts | 56° |
| 2026-05-05 18:57 | 48.49413 | -84.56032 | 34694 ft | 538 kts | 56° |
| 2026-05-05 18:57 | 48.53300 | -84.46476 | 34690 ft | 537 kts | 57° |
| 2026-05-05 18:58 | 48.57177 | -84.36904 | 34687 ft | 533 kts | 57° |
| 2026-05-05 18:58 | 48.61054 | -84.27307 | 34685 ft | 537 kts | 57° |
| 2026-05-05 18:59 | 48.64941 | -84.17642 | 34675 ft | 538 kts | 57° |
| 2026-05-05 18:59 | 48.68818 | -84.07971 | 34672 ft | 538 kts | 57° |
| 2026-05-05 19:00 | 48.72689 | -83.98277 | 34668 ft | 537 kts | 57° |
| 2026-05-05 19:00 | 48.76548 | -83.88582 | 34653 ft | 537 kts | 57° |
| 2026-05-05 19:01 | 48.80390 | -83.78892 | 34655 ft | 540 kts | 57° |
| 2026-05-05 19:01 | 48.84256 | -83.69105 | 34653 ft | 540 kts | 57° |
| 2026-05-05 19:02 | 48.88109 | -83.59315 | 34651 ft | 540 kts | 57° |
| 2026-05-05 19:02 | 48.91961 | -83.49493 | 34638 ft | 539 kts | 58° |
| 2026-05-05 19:03 | 48.95777 | -83.39724 | 34634 ft | 537 kts | 58° |
| 2026-05-05 19:03 | 48.99595 | -83.29919 | 34630 ft | 539 kts | 58° |
| 2026-05-05 19:04 | 49.03389 | -83.20131 | 34628 ft | 540 kts | 58° |
| 2026-05-05 19:04 | 49.07202 | -83.10264 | 34625 ft | 540 kts | 58° |
| 2026-05-05 19:05 | 49.11003 | -83.00389 | 34627 ft | 539 kts | 58° |
| 2026-05-05 19:05 | 49.14778 | -82.90545 | 34618 ft | 537 kts | 58° |
| 2026-05-05 19:06 | 49.18556 | -82.80658 | 34613 ft | 539 kts | 58° |
| 2026-05-05 19:06 | 49.22329 | -82.70743 | 34607 ft | 540 kts | 58° |
| 2026-05-05 19:07 | 49.26101 | -82.60797 | 34603 ft | 540 kts | 58° |
| 2026-05-05 19:07 | 49.29862 | -82.50839 | 34598 ft | 539 kts | 59° |
| 2026-05-05 19:08 | 49.33565 | -82.40999 | 34588 ft | 534 kts | 59° |
| 2026-05-05 19:08 | 49.37288 | -82.31071 | 34587 ft | 538 kts | 59° |
| 2026-05-05 19:09 | 49.41006 | -82.21111 | 34586 ft | 538 kts | 59° |
| 2026-05-05 19:09 | 49.44728 | -82.11110 | 34587 ft | 539 kts | 59° |
| 2026-05-05 19:10 | 49.48437 | -82.01102 | 34593 ft | 538 kts | 59° |
| 2026-05-05 19:10 | 49.52091 | -81.91203 | 34574 ft | 534 kts | 60° |
| 2026-05-05 19:11 | 49.55766 | -81.81213 | 34579 ft | 536 kts | 60° |
| 2026-05-05 19:11 | 49.59435 | -81.71198 | 34575 ft | 537 kts | 60° |
| 2026-05-05 19:12 | 49.63101 | -81.61154 | 34580 ft | 537 kts | 60° |
| 2026-05-05 19:12 | 49.66754 | -81.51106 | 34591 ft | 537 kts | 60° |
| 2026-05-05 19:13 | 49.70387 | -81.41074 | 34587 ft | 534 kts | 60° |
| 2026-05-05 19:13 | 49.74016 | -81.31016 | 34576 ft | 537 kts | 60° |
| 2026-05-05 19:14 | 49.77623 | -81.20975 | 34578 ft | 537 kts | 60° |
| 2026-05-05 19:14 | 49.81248 | -81.10850 | 34574 ft | 537 kts | 60° |
| 2026-05-05 19:15 | 49.84860 | -81.00718 | 34588 ft | 537 kts | 61° |
| 2026-05-05 19:15 | 49.88446 | -80.90621 | 34582 ft | 532 kts | 61° |
| 2026-05-05 19:16 | 49.92017 | -80.80526 | 34566 ft | 536 kts | 61° |
| 2026-05-05 19:16 | 49.95580 | -80.70415 | 34568 ft | 537 kts | 61° |
| 2026-05-05 19:17 | 49.99154 | -80.60229 | 34562 ft | 536 kts | 61° |
| 2026-05-05 19:17 | 50.02710 | -80.50058 | 34563 ft | 535 kts | 62° |
| 2026-05-05 19:18 | 50.06245 | -80.39902 | 34569 ft | 532 kts | 62° |
| 2026-05-05 19:18 | 50.09764 | -80.29755 | 34569 ft | 532 kts | 62° |
| 2026-05-05 19:19 | 50.13277 | -80.19585 | 34564 ft | 533 kts | 62° |
| 2026-05-05 19:19 | 50.16764 | -80.09451 | 34569 ft | 533 kts | 62° |
| 2026-05-05 19:20 | 50.20056 | -79.99092 | 34576 ft | 532 kts | 73° |
| 2026-05-05 19:20 | 50.21891 | -79.87922 | 34560 ft | 530 kts | 78° |
| 2026-05-05 19:21 | 50.23606 | -79.76757 | 34543 ft | 529 kts | 78° |
| 2026-05-05 19:21 | 50.25337 | -79.65548 | 34550 ft | 530 kts | 78° |
| 2026-05-05 19:22 | 50.27043 | -79.54321 | 34551 ft | 531 kts | 78° |
| 2026-05-05 19:22 | 50.28748 | -79.43094 | 34550 ft | 531 kts | 78° |
| 2026-05-05 19:23 | 50.30425 | -79.31927 | 34531 ft | 531 kts | 78° |
| 2026-05-05 19:23 | 50.32112 | -79.20640 | 34531 ft | 533 kts | 78° |
| 2026-05-05 19:24 | 50.33787 | -79.09336 | 34537 ft | 532 kts | 78° |
| 2026-05-05 19:24 | 50.35450 | -78.98039 | 34537 ft | 532 kts | 78° |
| 2026-05-05 19:25 | 50.37096 | -78.86777 | 34544 ft | 528 kts | 79° |
| 2026-05-05 19:25 | 50.38727 | -78.75527 | 34533 ft | 532 kts | 79° |
| 2026-05-05 19:26 | 50.40360 | -78.64191 | 34531 ft | 532 kts | 79° |
| 2026-05-05 19:26 | 50.41976 | -78.52884 | 34528 ft | 532 kts | 79° |
| 2026-05-05 19:27 | 50.43571 | -78.41640 | 34530 ft | 531 kts | 79° |
| 2026-05-05 19:27 | 50.45166 | -78.30312 | 34528 ft | 532 kts | 79° |
| 2026-05-05 19:28 | 50.46498 | -78.20783 | 34526 ft | 534 kts | 79° |
| 2026-05-05 19:28 | 50.48072 | -78.09448 | 34529 ft | 534 kts | 79° |
| 2026-05-05 19:29 | 50.49641 | -77.98055 | 34530 ft | 534 kts | 80° |
| 2026-05-05 19:29 | 50.51201 | -77.86643 | 34532 ft | 534 kts | 80° |
| 2026-05-05 19:30 | 50.52753 | -77.75200 | 34532 ft | 536 kts | 80° |
| 2026-05-05 19:30 | 50.54299 | -77.63719 | 34533 ft | 536 kts | 80° |
| 2026-05-05 19:31 | 50.55820 | -77.52320 | 34529 ft | 535 kts | 80° |
| 2026-05-05 19:31 | 50.57336 | -77.40875 | 34529 ft | 535 kts | 80° |
| 2026-05-05 19:32 | 50.58843 | -77.29401 | 34524 ft | 536 kts | 80° |
| 2026-05-05 19:32 | 50.60344 | -77.17883 | 34529 ft | 538 kts | 81° |
| 2026-05-05 19:33 | 50.61834 | -77.06352 | 34546 ft | 538 kts | 81° |
| 2026-05-05 19:33 | 50.63308 | -76.94851 | 34529 ft | 533 kts | 81° |
| 2026-05-05 19:34 | 50.64764 | -76.83390 | 34504 ft | 533 kts | 81° |
| 2026-05-05 19:35 | 50.66940 | -76.66096 | 34525 ft | 537 kts | 81° |
| 2026-05-05 19:35 | 50.68368 | -76.54623 | 34523 ft | 537 kts | 81° |
| 2026-05-05 19:36 | 50.69793 | -76.43071 | 34522 ft | 536 kts | 81° |
| 2026-05-05 19:36 | 50.71206 | -76.31522 | 34497 ft | 536 kts | 81° |
| 2026-05-05 19:37 | 50.72613 | -76.19907 | 34515 ft | 540 kts | 81° |
| 2026-05-05 19:37 | 50.74014 | -76.08261 | 34532 ft | 539 kts | 82° |
| 2026-05-05 19:38 | 50.75395 | -75.96663 | 34513 ft | 535 kts | 82° |
| 2026-05-05 19:38 | 50.76751 | -75.85178 | 34508 ft | 535 kts | 82° |
| 2026-05-05 19:39 | 50.78108 | -75.73587 | 34508 ft | 539 kts | 82° |
| 2026-05-05 19:39 | 50.79464 | -75.61889 | 34707 ft | 541 kts | 82° |
| 2026-05-05 19:39 | 50.80138 | -75.56044 | 35038 ft | 540 kts | 82° |
| 2026-05-05 19:40 | 50.80807 | -75.50205 | 35342 ft | 539 kts | 82° |
| 2026-05-05 19:40 | 50.81470 | -75.44384 | 35626 ft | 538 kts | 82° |
| 2026-05-05 19:40 | 50.82132 | -75.38553 | 35919 ft | 537 kts | 82° |
| 2026-05-05 19:40 | 50.82789 | -75.32745 | 36207 ft | 536 kts | 82° |
| 2026-05-05 19:41 | 50.83443 | -75.26938 | 36494 ft | 536 kts | 82° |
| 2026-05-05 19:41 | 50.84091 | -75.21146 | 36779 ft | 535 kts | 82° |
| 2026-05-05 19:41 | 50.84738 | -75.15340 | 37063 ft | 534 kts | 82° |
| 2026-05-05 19:41 | 50.85370 | -75.09642 | 37341 ft | 533 kts | 82° |
| 2026-05-05 19:42 | 50.86008 | -75.03867 | 37654 ft | 531 kts | 82° |
| 2026-05-05 19:42 | 50.86641 | -74.98106 | 37916 ft | 531 kts | 82° |
| 2026-05-05 19:42 | 50.87269 | -74.92357 | 38177 ft | 530 kts | 82° |
| 2026-05-05 19:42 | 50.87894 | -74.86615 | 38421 ft | 528 kts | 82° |
| 2026-05-05 19:43 | 50.88517 | -74.80865 | 38474 ft | 531 kts | 82° |
| 2026-05-05 19:43 | 50.89758 | -74.69332 | 38470 ft | 530 kts | 82° |
| 2026-05-05 19:44 | 50.90984 | -74.57820 | 38465 ft | 529 kts | 83° |
| 2026-05-05 19:44 | 50.92195 | -74.46331 | 38467 ft | 528 kts | 83° |
| 2026-05-05 19:45 | 50.93395 | -74.34839 | 38452 ft | 528 kts | 83° |
| 2026-05-05 19:45 | 50.94583 | -74.23346 | 38460 ft | 528 kts | 83° |
| 2026-05-05 19:46 | 50.95764 | -74.11812 | 38448 ft | 530 kts | 83° |
| 2026-05-05 19:46 | 50.96934 | -74.00272 | 38451 ft | 529 kts | 83° |
| 2026-05-05 19:47 | 50.98088 | -73.88756 | 38439 ft | 528 kts | 83° |
| 2026-05-05 19:47 | 50.99222 | -73.77330 | 38433 ft | 527 kts | 83° |
| 2026-05-05 19:48 | 51.00352 | -73.65830 | 38442 ft | 529 kts | 84° |
| 2026-05-05 19:48 | 51.01476 | -73.54258 | 38445 ft | 531 kts | 84° |
| 2026-05-05 19:49 | 51.02594 | -73.42642 | 38441 ft | 531 kts | 84° |
| 2026-05-05 19:49 | 51.03698 | -73.31024 | 38446 ft | 531 kts | 84° |
| 2026-05-05 19:50 | 51.04793 | -73.19400 | 38426 ft | 531 kts | 84° |
| 2026-05-05 19:50 | 51.05875 | -73.07749 | 38443 ft | 534 kts | 84° |
| 2026-05-05 19:51 | 51.06953 | -72.96053 | 38447 ft | 534 kts | 85° |
| 2026-05-05 19:51 | 51.08010 | -72.84428 | 38450 ft | 534 kts | 85° |
| 2026-05-05 19:52 | 51.09061 | -72.72749 | 38444 ft | 534 kts | 85° |
| 2026-05-05 19:52 | 51.10102 | -72.61029 | 38441 ft | 536 kts | 85° |
| 2026-05-05 19:53 | 51.11137 | -72.49255 | 38446 ft | 538 kts | 85° |
| 2026-05-05 19:53 | 51.12160 | -72.37467 | 38445 ft | 536 kts | 85° |
| 2026-05-05 19:54 | 51.13167 | -72.25718 | 38441 ft | 535 kts | 85° |
| 2026-05-05 19:54 | 51.14164 | -72.13971 | 38444 ft | 535 kts | 86° |
| 2026-05-05 19:55 | 51.15149 | -72.02185 | 38457 ft | 537 kts | 85° |
| 2026-05-05 19:55 | 51.16118 | -71.90476 | 38450 ft | 536 kts | 85° |
| 2026-05-05 19:56 | 51.17078 | -71.78707 | 38448 ft | 535 kts | 85° |
| 2026-05-05 19:56 | 51.18026 | -71.66948 | 38445 ft | 535 kts | 86° |
| 2026-05-05 19:57 | 51.18962 | -71.55174 | 38440 ft | 536 kts | 86° |
| 2026-05-05 19:57 | 51.19888 | -71.43376 | 38447 ft | 536 kts | 86° |
| 2026-05-05 19:58 | 51.20804 | -71.31558 | 38451 ft | 537 kts | 86° |
| 2026-05-05 19:58 | 51.21707 | -71.19745 | 38453 ft | 536 kts | 86° |
| 2026-05-05 19:59 | 51.22595 | -71.07963 | 38461 ft | 534 kts | 86° |
| 2026-05-05 19:59 | 51.23469 | -70.96212 | 38464 ft | 533 kts | 86° |
| 2026-05-05 20:00 | 51.24331 | -70.84456 | 38466 ft | 534 kts | 86° |
| 2026-05-05 20:00 | 51.25178 | -70.72751 | 38462 ft | 534 kts | 87° |
| 2026-05-05 20:01 | 51.26019 | -70.60962 | 38466 ft | 533 kts | 87° |
| 2026-05-05 20:01 | 51.26844 | -70.49213 | 38458 ft | 531 kts | 87° |
| 2026-05-05 20:02 | 51.27656 | -70.37490 | 38457 ft | 531 kts | 87° |
| 2026-05-05 20:02 | 51.28456 | -70.25755 | 38459 ft | 531 kts | 87° |
| 2026-05-05 20:03 | 51.29245 | -70.14011 | 38462 ft | 532 kts | 88° |
| 2026-05-05 20:03 | 51.30019 | -70.02313 | 38467 ft | 532 kts | 87° |
| 2026-05-05 20:04 | 51.30786 | -69.90552 | 38470 ft | 532 kts | 88° |
| 2026-05-05 20:04 | 51.31539 | -69.78795 | 38475 ft | 532 kts | 88° |
| 2026-05-05 20:05 | 51.32283 | -69.67010 | 38470 ft | 534 kts | 88° |
| 2026-05-05 20:05 | 51.33016 | -69.55203 | 38469 ft | 532 kts | 88° |
| 2026-05-05 20:06 | 51.33736 | -69.43454 | 38460 ft | 530 kts | 88° |
| 2026-05-05 20:06 | 51.34454 | -69.31727 | 38460 ft | 529 kts | 88° |
| 2026-05-05 20:07 | 51.35154 | -69.19989 | 38475 ft | 530 kts | 88° |
| 2026-05-05 20:07 | 51.35843 | -69.08303 | 38473 ft | 530 kts | 88° |
| 2026-05-05 20:08 | 51.36521 | -68.96560 | 38474 ft | 529 kts | 88° |
| 2026-05-05 20:08 | 51.37187 | -68.84830 | 38498 ft | 530 kts | 88° |
| 2026-05-05 20:09 | 51.37842 | -68.73093 | 38494 ft | 529 kts | 88° |
| 2026-05-05 20:09 | 51.38486 | -68.61330 | 38505 ft | 530 kts | 88° |
| 2026-05-05 20:10 | 51.39118 | -68.49579 | 38505 ft | 529 kts | 89° |
| 2026-05-05 20:10 | 51.39737 | -68.37848 | 38509 ft | 531 kts | 89° |
| 2026-05-05 20:11 | 51.40349 | -68.26012 | 38515 ft | 532 kts | 89° |
| 2026-05-05 20:11 | 51.40945 | -68.14260 | 38523 ft | 532 kts | 89° |
| 2026-05-05 20:12 | 51.41533 | -68.02434 | 38523 ft | 532 kts | 89° |
| 2026-05-05 20:12 | 51.42011 | -67.92621 | 38529 ft | 532 kts | 89° |
| 2026-05-05 20:13 | 51.42576 | -67.80819 | 38525 ft | 530 kts | 89° |
| 2026-05-05 20:13 | 51.43127 | -67.69035 | 38533 ft | 530 kts | 89° |
| 2026-05-05 20:14 | 51.43668 | -67.57228 | 38540 ft | 531 kts | 89° |
| 2026-05-05 20:14 | 51.44196 | -67.45425 | 38543 ft | 531 kts | 89° |
| 2026-05-05 20:15 | 51.44714 | -67.33592 | 38559 ft | 530 kts | 89° |
| 2026-05-05 20:15 | 51.45215 | -67.21902 | 38546 ft | 528 kts | 89° |
| 2026-05-05 20:16 | 51.45704 | -67.10170 | 38563 ft | 527 kts | 89° |
| 2026-05-05 20:16 | 51.46182 | -66.98436 | 38562 ft | 527 kts | 89° |
| 2026-05-05 20:17 | 51.46649 | -66.86690 | 38563 ft | 527 kts | 90° |
| 2026-05-05 20:17 | 51.47103 | -66.74985 | 38554 ft | 526 kts | 90° |
| 2026-05-05 20:18 | 51.47544 | -66.63263 | 38562 ft | 526 kts | 90° |
| 2026-05-05 20:18 | 51.47976 | -66.51515 | 38567 ft | 527 kts | 90° |
| 2026-05-05 20:19 | 51.48396 | -66.39769 | 38563 ft | 526 kts | 90° |
| 2026-05-05 20:19 | 51.48799 | -66.28130 | 38551 ft | 526 kts | 90° |
| 2026-05-05 20:20 | 51.49197 | -66.16345 | 38562 ft | 526 kts | 90° |
| 2026-05-05 20:20 | 51.49580 | -66.04628 | 38564 ft | 526 kts | 90° |
| 2026-05-05 20:21 | 51.49949 | -65.92987 | 38569 ft | 526 kts | 90° |
| 2026-05-05 20:21 | 51.50310 | -65.81244 | 38575 ft | 526 kts | 90° |
| 2026-05-05 20:22 | 51.50659 | -65.69516 | 38574 ft | 526 kts | 90° |
| 2026-05-05 20:22 | 51.50996 | -65.57763 | 38579 ft | 528 kts | 90° |
| 2026-05-05 20:23 | 51.51323 | -65.45974 | 38583 ft | 529 kts | 91° |
| 2026-05-05 20:23 | 51.51638 | -65.34165 | 38585 ft | 528 kts | 91° |
| 2026-05-05 20:24 | 51.51938 | -65.22478 | 38582 ft | 527 kts | 91° |
| 2026-05-05 20:24 | 51.52229 | -65.10709 | 38582 ft | 528 kts | 91° |
| 2026-05-05 20:25 | 51.52508 | -64.98911 | 38582 ft | 530 kts | 91° |
| 2026-05-05 20:25 | 51.52777 | -64.87081 | 38590 ft | 528 kts | 91° |
| 2026-05-05 20:26 | 51.53031 | -64.75334 | 38588 ft | 525 kts | 91° |
| 2026-05-05 20:26 | 51.53273 | -64.63598 | 38584 ft | 525 kts | 91° |
| 2026-05-05 20:27 | 51.53505 | -64.51874 | 38587 ft | 526 kts | 91° |
| 2026-05-05 20:27 | 51.53723 | -64.40179 | 38589 ft | 526 kts | 91° |
| 2026-05-05 20:28 | 51.53931 | -64.28439 | 38592 ft | 526 kts | 91° |
| 2026-05-05 20:28 | 51.54127 | -64.16690 | 38593 ft | 526 kts | 91° |
| 2026-05-05 20:29 | 51.54311 | -64.04933 | 38587 ft | 526 kts | 91° |
| 2026-05-05 20:29 | 51.54484 | -63.93170 | 38588 ft | 527 kts | 91° |
| 2026-05-05 20:30 | 51.54645 | -63.81366 | 38599 ft | 529 kts | 91° |
| 2026-05-05 20:30 | 51.54794 | -63.69615 | 38599 ft | 529 kts | 91° |
| 2026-05-05 20:31 | 51.54932 | -63.57805 | 38601 ft | 528 kts | 91° |
| 2026-05-05 20:31 | 51.55058 | -63.46001 | 38599 ft | 530 kts | 91° |
| 2026-05-05 20:32 | 51.55173 | -63.34149 | 38600 ft | 530 kts | 91° |
| 2026-05-05 20:32 | 51.55275 | -63.22299 | 38612 ft | 530 kts | 92° |
| 2026-05-05 20:33 | 51.55366 | -63.10444 | 38612 ft | 530 kts | 92° |
| 2026-05-05 20:33 | 51.55444 | -62.98656 | 38619 ft | 530 kts | 91° |
| 2026-05-05 20:34 | 51.55510 | -62.86773 | 38634 ft | 532 kts | 91° |
| 2026-05-05 20:34 | 51.55566 | -62.74913 | 38625 ft | 530 kts | 91° |
| 2026-05-05 20:35 | 51.55609 | -62.63061 | 38623 ft | 529 kts | 91° |
| 2026-05-05 20:35 | 51.55640 | -62.51222 | 38629 ft | 529 kts | 92° |
| 2026-05-05 20:36 | 51.55659 | -62.39397 | 38624 ft | 529 kts | 91° |
| 2026-05-05 20:36 | 51.55666 | -62.27558 | 38632 ft | 530 kts | 91° |
| 2026-05-05 20:37 | 51.55661 | -62.15764 | 38640 ft | 532 kts | 92° |
| 2026-05-05 20:37 | 51.55644 | -62.03871 | 38641 ft | 532 kts | 92° |
| 2026-05-05 20:38 | 51.55615 | -61.91988 | 38635 ft | 531 kts | 91° |
| 2026-05-05 20:38 | 51.55575 | -61.80116 | 38648 ft | 529 kts | 91° |
| 2026-05-05 20:39 | 51.55523 | -61.68354 | 38646 ft | 525 kts | 91° |
| 2026-05-05 20:39 | 51.55459 | -61.56662 | 38644 ft | 526 kts | 91° |
| 2026-05-05 20:40 | 51.55384 | -61.44887 | 38646 ft | 528 kts | 92° |
| 2026-05-05 20:40 | 51.55296 | -61.33095 | 38648 ft | 528 kts | 91° |
| 2026-05-05 20:41 | 51.55197 | -61.21289 | 38649 ft | 528 kts | 92° |
| 2026-05-05 20:41 | 51.55085 | -61.09485 | 38652 ft | 527 kts | 92° |
| 2026-05-05 20:42 | 51.54962 | -60.97694 | 38660 ft | 528 kts | 92° |
| 2026-05-05 20:42 | 51.54828 | -60.85955 | 38655 ft | 529 kts | 92° |
| 2026-05-05 20:43 | 51.54681 | -60.74182 | 38665 ft | 524 kts | 92° |
| 2026-05-05 20:43 | 51.54524 | -60.62493 | 38667 ft | 523 kts | 92° |
| 2026-05-05 20:44 | 51.54355 | -60.50793 | 38672 ft | 524 kts | 92° |
| 2026-05-05 20:44 | 51.54175 | -60.39080 | 38664 ft | 524 kts | 92° |
| 2026-05-05 20:45 | 51.53882 | -60.21518 | 38661 ft | 523 kts | 92° |
| 2026-05-05 20:45 | 51.53674 | -60.09908 | 38664 ft | 522 kts | 92° |
| 2026-05-05 20:46 | 51.53453 | -59.98248 | 38661 ft | 522 kts | 92° |
| 2026-05-05 20:46 | 51.53221 | -59.86578 | 38664 ft | 523 kts | 92° |
| 2026-05-05 20:47 | 51.52977 | -59.74907 | 38673 ft | 523 kts | 92° |
| 2026-05-05 20:47 | 51.52722 | -59.63228 | 38672 ft | 524 kts | 92° |
| 2026-05-05 20:48 | 51.52454 | -59.51526 | 38674 ft | 524 kts | 92° |
| 2026-05-05 20:48 | 51.52174 | -59.39816 | 38672 ft | 525 kts | 93° |
| 2026-05-05 20:49 | 51.51883 | -59.28102 | 38677 ft | 524 kts | 93° |
| 2026-05-05 20:49 | 51.51581 | -59.16420 | 38674 ft | 524 kts | 93° |
| 2026-05-05 20:50 | 51.51320 | -59.06710 | 38679 ft | 524 kts | 93° |
| 2026-05-05 20:50 | 51.50943 | -58.93130 | 38678 ft | 524 kts | 93° |
| 2026-05-05 20:51 | 51.50606 | -58.81459 | 38688 ft | 524 kts | 93° |
| 2026-05-05 20:51 | 51.50257 | -58.69756 | 38694 ft | 524 kts | 93° |
| 2026-05-05 20:52 | 51.49895 | -58.58046 | 38698 ft | 526 kts | 93° |
| 2026-05-05 20:52 | 51.49521 | -58.46297 | 38706 ft | 527 kts | 93° |
| 2026-05-05 20:53 | 51.49135 | -58.34555 | 38703 ft | 526 kts | 94° |
| 2026-05-05 20:53 | 51.48741 | -58.22912 | 38714 ft | 525 kts | 94° |
| 2026-05-05 20:54 | 51.48333 | -58.11226 | 38714 ft | 524 kts | 94° |
| 2026-05-05 20:54 | 51.47912 | -57.99488 | 38731 ft | 529 kts | 94° |
| 2026-05-05 20:55 | 51.47477 | -57.87700 | 38726 ft | 529 kts | 94° |
| 2026-05-05 20:55 | 51.47031 | -57.75909 | 38734 ft | 530 kts | 94° |
| 2026-05-05 20:56 | 51.46572 | -57.64118 | 38727 ft | 529 kts | 94° |
| 2026-05-05 20:56 | 51.46103 | -57.52371 | 38726 ft | 526 kts | 94° |
| 2026-05-05 20:57 | 51.45625 | -57.40688 | 38727 ft | 525 kts | 94° |
| 2026-05-05 20:57 | 51.45135 | -57.29006 | 38738 ft | 525 kts | 94° |
| 2026-05-05 20:58 | 51.44637 | -57.17393 | 38733 ft | 526 kts | 94° |
| 2026-05-05 20:58 | 51.44207 | -57.07588 | 38731 ft | 526 kts | 94° |
| 2026-05-05 20:59 | 51.43687 | -56.95954 | 38732 ft | 526 kts | 94° |
| 2026-05-05 20:59 | 51.43150 | -56.84233 | 38732 ft | 527 kts | 95° |
| 2026-05-05 21:00 | 51.42603 | -56.72529 | 38734 ft | 526 kts | 95° |
| 2026-05-05 21:00 | 51.42047 | -56.60883 | 38728 ft | 521 kts | 95° |
| 2026-05-05 21:01 | 51.41483 | -56.49310 | 38707 ft | 522 kts | 95° |
| 2026-05-05 21:01 | 51.40905 | -56.37710 | 38709 ft | 523 kts | 95° |
| 2026-05-05 21:02 | 51.40315 | -56.26083 | 38707 ft | 524 kts | 95° |
| 2026-05-05 21:02 | 51.39740 | -56.14504 | 38721 ft | 525 kts | 91° |
| 2026-05-05 21:03 | 51.39973 | -56.08683 | 38751 ft | 525 kts | 78° |
| 2026-05-05 21:03 | 51.40886 | -56.03028 | 38753 ft | 525 kts | 67° |
| 2026-05-05 21:03 | 51.43733 | -55.92255 | 38738 ft | 525 kts | 65° |
| 2026-05-05 21:04 | 51.46644 | -55.81490 | 38732 ft | 527 kts | 66° |
| 2026-05-05 21:04 | 51.49518 | -55.70675 | 38741 ft | 527 kts | 65° |
| 2026-05-05 21:05 | 51.52407 | -55.59845 | 38744 ft | 527 kts | 66° |
| 2026-05-05 21:05 | 51.55264 | -55.49026 | 38744 ft | 526 kts | 66° |
| 2026-05-05 21:06 | 51.58117 | -55.38206 | 38738 ft | 525 kts | 66° |
| 2026-05-05 21:06 | 51.60952 | -55.27384 | 38743 ft | 524 kts | 66° |
| 2026-05-05 21:07 | 51.63774 | -55.16572 | 38744 ft | 524 kts | 66° |
| 2026-05-05 21:07 | 51.66574 | -55.05784 | 38746 ft | 526 kts | 66° |
| 2026-05-05 21:08 | 51.69388 | -54.94892 | 38778 ft | 526 kts | 66° |
| 2026-05-05 21:08 | 51.72196 | -54.83973 | 38757 ft | 526 kts | 66° |
| 2026-05-05 21:09 | 51.74986 | -54.73070 | 38750 ft | 525 kts | 66° |
| 2026-05-05 21:09 | 51.77760 | -54.62178 | 38752 ft | 525 kts | 66° |
| 2026-05-05 21:10 | 51.80570 | -54.51375 | 38777 ft | 523 kts | 62° |
| 2026-05-05 21:10 | 51.83670 | -54.40726 | 38766 ft | 523 kts | 63° |
| 2026-05-05 21:11 | 51.86744 | -54.30080 | 38764 ft | 520 kts | 63° |
| 2026-05-05 21:11 | 51.89810 | -54.19459 | 38763 ft | 521 kts | 63° |
| 2026-05-05 21:12 | 51.92855 | -54.08818 | 38760 ft | 521 kts | 63° |
| 2026-05-05 21:12 | 51.95903 | -53.98157 | 38763 ft | 520 kts | 64° |
| 2026-05-05 21:13 | 51.98902 | -53.87589 | 38755 ft | 513 kts | 64° |
| 2026-05-05 21:13 | 52.01871 | -53.77103 | 38764 ft | 515 kts | 64° |
| 2026-05-05 21:14 | 52.04860 | -53.66481 | 38764 ft | 518 kts | 64° |
| 2026-05-05 21:14 | 52.07853 | -53.55809 | 38765 ft | 518 kts | 64° |
| 2026-05-05 21:15 | 52.10835 | -53.45122 | 38766 ft | 519 kts | 64° |
| 2026-05-05 21:15 | 52.13795 | -53.34465 | 38767 ft | 520 kts | 64° |
| 2026-05-05 21:16 | 52.16758 | -53.23752 | 38765 ft | 518 kts | 64° |
| 2026-05-05 21:16 | 52.19698 | -53.13070 | 38756 ft | 516 kts | 64° |
| 2026-05-05 21:17 | 52.22632 | -53.02361 | 38762 ft | 517 kts | 65° |
| 2026-05-05 21:17 | 52.25565 | -52.91606 | 38764 ft | 520 kts | 65° |
| 2026-05-05 21:18 | 52.28497 | -52.80803 | 38762 ft | 521 kts | 65° |
| 2026-05-05 21:18 | 52.31403 | -52.70045 | 38760 ft | 520 kts | 65° |
| 2026-05-05 21:19 | 52.34316 | -52.59214 | 38762 ft | 519 kts | 65° |
| 2026-05-05 21:19 | 52.37209 | -52.48404 | 38762 ft | 517 kts | 65° |
| 2026-05-05 21:20 | 52.40081 | -52.37625 | 38757 ft | 517 kts | 65° |
| 2026-05-05 21:20 | 52.42944 | -52.26826 | 38757 ft | 517 kts | 65° |
| 2026-05-05 21:21 | 52.45782 | -52.16069 | 38753 ft | 517 kts | 65° |
| 2026-05-05 21:21 | 52.48631 | -52.05221 | 38760 ft | 517 kts | 66° |
| 2026-05-05 21:22 | 52.51470 | -51.94358 | 38758 ft | 517 kts | 66° |
| 2026-05-05 21:22 | 52.54296 | -51.83492 | 38758 ft | 517 kts | 66° |
| 2026-05-05 21:23 | 52.57116 | -51.72599 | 38760 ft | 517 kts | 66° |
| 2026-05-05 21:23 | 52.59904 | -51.61778 | 38767 ft | 517 kts | 66° |
| 2026-05-05 21:24 | 52.62699 | -51.50875 | 38769 ft | 517 kts | 66° |
| 2026-05-05 21:24 | 52.65485 | -51.39957 | 38772 ft | 517 kts | 66° |
| 2026-05-05 21:25 | 52.68258 | -51.29033 | 38769 ft | 517 kts | 66° |
| 2026-05-05 21:25 | 52.71027 | -51.18074 | 38782 ft | 517 kts | 66° |
| 2026-05-05 21:26 | 52.73780 | -51.07124 | 38768 ft | 517 kts | 67° |
| 2026-05-05 21:26 | 52.76519 | -50.96177 | 38768 ft | 516 kts | 67° |
| 2026-05-05 21:27 | 52.79251 | -50.85201 | 38764 ft | 516 kts | 67° |
| 2026-05-05 21:27 | 52.81953 | -50.74292 | 38765 ft | 516 kts | 67° |
| 2026-05-05 21:28 | 52.84664 | -50.63293 | 38773 ft | 516 kts | 68° |
| 2026-05-05 21:28 | 52.87363 | -50.52289 | 38774 ft | 516 kts | 68° |
| 2026-05-05 21:29 | 52.90056 | -50.41251 | 38773 ft | 516 kts | 68° |
| 2026-05-05 21:29 | 52.92740 | -50.30198 | 38773 ft | 517 kts | 68° |
| 2026-05-05 21:30 | 52.95412 | -50.19136 | 38791 ft | 516 kts | 68° |
| 2026-05-05 21:30 | 52.98069 | -50.08080 | 38789 ft | 515 kts | 68° |
| 2026-05-05 21:31 | 53.00467 | -49.96899 | 38810 ft | 514 kts | 77° |
| 2026-05-05 21:31 | 53.02104 | -49.85394 | 38799 ft | 515 kts | 77° |
| 2026-05-05 21:32 | 53.03780 | -49.73726 | 38799 ft | 515 kts | 77° |
| 2026-05-05 21:32 | 53.05415 | -49.62199 | 38794 ft | 515 kts | 77° |
| 2026-05-05 21:33 | 53.07049 | -49.50593 | 38802 ft | 515 kts | 77° |
| 2026-05-05 21:33 | 53.08677 | -49.38961 | 38806 ft | 516 kts | 77° |
| 2026-05-05 21:34 | 53.10288 | -49.27335 | 38810 ft | 516 kts | 77° |
| 2026-05-05 21:34 | 53.11888 | -49.15716 | 38817 ft | 516 kts | 78° |
| 2026-05-05 21:35 | 53.13479 | -49.04065 | 38821 ft | 516 kts | 78° |
| 2026-05-05 21:35 | 53.15061 | -48.92391 | 38823 ft | 515 kts | 78° |
| 2026-05-05 21:36 | 53.16627 | -48.80738 | 38822 ft | 515 kts | 78° |
| 2026-05-05 21:36 | 53.18175 | -48.69130 | 38819 ft | 516 kts | 78° |
| 2026-05-05 21:37 | 53.19724 | -48.57422 | 38823 ft | 517 kts | 78° |
| 2026-05-05 21:37 | 53.21259 | -48.45721 | 38826 ft | 517 kts | 79° |
| 2026-05-05 21:38 | 53.22782 | -48.34013 | 38831 ft | 515 kts | 78° |
| 2026-05-05 21:38 | 53.24291 | -48.22324 | 38837 ft | 516 kts | 79° |
| 2026-05-05 21:39 | 53.25793 | -48.10589 | 38837 ft | 516 kts | 79° |
| 2026-05-05 21:39 | 53.27281 | -47.98863 | 38852 ft | 515 kts | 79° |
| 2026-05-05 21:40 | 53.28759 | -47.87122 | 38839 ft | 516 kts | 79° |
| 2026-05-05 21:40 | 53.30211 | -47.75486 | 38842 ft | 513 kts | 79° |
| 2026-05-05 21:41 | 53.31657 | -47.63793 | 38855 ft | 514 kts | 79° |
| 2026-05-05 21:41 | 53.33097 | -47.52056 | 38858 ft | 515 kts | 79° |
| 2026-05-05 21:42 | 53.34526 | -47.40305 | 38861 ft | 515 kts | 79° |
| 2026-05-05 21:42 | 53.35940 | -47.28567 | 38869 ft | 514 kts | 79° |
| 2026-05-05 21:43 | 53.37339 | -47.16859 | 38869 ft | 511 kts | 80° |
| 2026-05-05 21:43 | 53.38721 | -47.05186 | 38879 ft | 512 kts | 80° |
| 2026-05-05 21:44 | 53.39412 | -46.99311 | 38990 ft | 514 kts | 80° |
| 2026-05-05 21:44 | 53.40091 | -46.93523 | 39219 ft | 513 kts | 81° |
| 2026-05-05 21:44 | 53.40775 | -46.87649 | 39337 ft | 514 kts | 80° |
| 2026-05-05 21:44 | 53.41457 | -46.81776 | 39562 ft | 514 kts | 81° |
| 2026-05-05 21:45 | 53.42813 | -46.70016 | 39887 ft | 514 kts | 81° |
| 2026-05-05 21:45 | 53.43488 | -46.64116 | 40125 ft | 513 kts | 81° |
| 2026-05-05 21:45 | 53.44157 | -46.58234 | 40228 ft | 515 kts | 80° |
| 2026-05-05 21:46 | 53.44826 | -46.52334 | 40471 ft | 513 kts | 80° |
| 2026-05-05 21:46 | 53.45492 | -46.46444 | 40583 ft | 515 kts | 81° |
| 2026-05-05 21:46 | 53.46152 | -46.40569 | 40875 ft | 512 kts | 81° |
| 2026-05-05 21:46 | 53.46811 | -46.34674 | 40904 ft | 514 kts | 81° |
| 2026-05-05 21:47 | 53.47900 | -46.24876 | 40895 ft | 514 kts | 81° |
| 2026-05-05 21:47 | 53.49198 | -46.13091 | 40906 ft | 513 kts | 81° |
| 2026-05-05 21:48 | 53.50481 | -46.01335 | 40916 ft | 510 kts | 81° |
| 2026-05-05 21:48 | 53.51748 | -45.89604 | 40917 ft | 511 kts | 81° |
| 2026-05-05 21:49 | 53.53007 | -45.77844 | 40922 ft | 511 kts | 81° |
| 2026-05-05 21:49 | 53.54256 | -45.66061 | 40922 ft | 511 kts | 81° |
| 2026-05-05 21:50 | 53.55491 | -45.54298 | 40929 ft | 511 kts | 81° |
| 2026-05-05 21:50 | 53.56714 | -45.42522 | 40931 ft | 509 kts | 82° |
| 2026-05-05 21:51 | 53.57920 | -45.30808 | 40932 ft | 507 kts | 82° |
| 2026-05-05 21:51 | 53.59113 | -45.19083 | 40931 ft | 509 kts | 82° |
| 2026-05-05 21:52 | 53.60880 | -45.01506 | 40953 ft | 510 kts | 82° |
| 2026-05-05 21:53 | 53.62051 | -44.89704 | 40953 ft | 510 kts | 82° |
| 2026-05-05 21:53 | 53.63205 | -44.77950 | 40963 ft | 506 kts | 82° |
| 2026-05-05 21:54 | 53.64344 | -44.66229 | 40961 ft | 506 kts | 83° |
| 2026-05-05 21:54 | 53.65471 | -44.54509 | 40964 ft | 507 kts | 83° |
| 2026-05-05 21:55 | 53.66590 | -44.42739 | 40968 ft | 508 kts | 83° |
| 2026-05-05 21:55 | 53.67698 | -44.30978 | 40979 ft | 507 kts | 83° |
| 2026-05-05 21:56 | 53.68782 | -44.19314 | 40974 ft | 504 kts | 83° |
| 2026-05-05 21:56 | 53.69865 | -44.07556 | 40979 ft | 505 kts | 83° |
| 2026-05-05 21:57 | 53.70923 | -43.95921 | 40989 ft | 505 kts | 83° |
| 2026-05-05 21:57 | 53.71980 | -43.84185 | 40997 ft | 505 kts | 83° |
| 2026-05-05 21:58 | 53.73024 | -43.72448 | 40999 ft | 506 kts | 83° |
| 2026-05-05 21:58 | 53.74057 | -43.60707 | 41007 ft | 503 kts | 84° |
| 2026-05-05 21:59 | 53.75065 | -43.49098 | 41005 ft | 502 kts | 84° |
| 2026-05-05 21:59 | 53.76070 | -43.37411 | 41010 ft | 502 kts | 84° |
| 2026-05-05 22:00 | 53.77062 | -43.25721 | 41005 ft | 502 kts | 84° |
| 2026-05-05 22:00 | 53.78047 | -43.13982 | 41024 ft | 505 kts | 84° |
| 2026-05-05 22:01 | 53.79016 | -43.02296 | 41021 ft | 504 kts | 84° |
| 2026-05-05 22:01 | 53.79975 | -42.90585 | 41026 ft | 501 kts | 84° |
| 2026-05-05 22:02 | 53.80918 | -42.78913 | 41024 ft | 501 kts | 84° |
| 2026-05-05 22:02 | 53.81851 | -42.67233 | 41026 ft | 501 kts | 84° |
| 2026-05-05 22:03 | 53.82774 | -42.55529 | 41025 ft | 501 kts | 84° |
| 2026-05-05 22:03 | 53.83679 | -42.43912 | 41028 ft | 501 kts | 85° |
| 2026-05-05 22:04 | 53.84576 | -42.32232 | 41039 ft | 499 kts | 85° |
| 2026-05-05 22:04 | 53.85461 | -42.20566 | 41036 ft | 499 kts | 85° |
| 2026-05-05 22:05 | 53.86334 | -42.08891 | 41050 ft | 500 kts | 85° |
| 2026-05-05 22:05 | 53.87201 | -41.97163 | 41055 ft | 502 kts | 85° |
| 2026-05-05 22:06 | 53.88051 | -41.85484 | 41069 ft | 503 kts | 85° |
| 2026-05-05 22:06 | 53.88896 | -41.73728 | 41070 ft | 501 kts | 85° |
| 2026-05-05 22:07 | 53.89725 | -41.62021 | 41067 ft | 499 kts | 85° |
| 2026-05-05 22:07 | 53.90540 | -41.50351 | 41061 ft | 498 kts | 85° |
| 2026-05-05 22:08 | 53.91345 | -41.38655 | 41081 ft | 499 kts | 85° |
| 2026-05-05 22:08 | 53.92135 | -41.27005 | 41085 ft | 501 kts | 86° |
| 2026-05-05 22:09 | 53.92921 | -41.15247 | 41087 ft | 503 kts | 86° |
| 2026-05-05 22:09 | 53.93698 | -41.03442 | 41087 ft | 502 kts | 86° |
| 2026-05-05 22:10 | 53.94461 | -40.91680 | 41093 ft | 501 kts | 86° |
| 2026-05-05 22:10 | 53.95212 | -40.79915 | 41088 ft | 500 kts | 86° |
| 2026-05-05 22:11 | 53.95943 | -40.68276 | 41091 ft | 499 kts | 86° |
| 2026-05-05 22:11 | 53.96667 | -40.56559 | 41091 ft | 499 kts | 86° |
| 2026-05-05 22:12 | 53.97383 | -40.44797 | 41094 ft | 502 kts | 86° |
| 2026-05-05 22:12 | 53.98095 | -40.32888 | 41118 ft | 510 kts | 86° |
| 2026-05-05 22:13 | 53.98807 | -40.20797 | 41116 ft | 518 kts | 86° |
| 2026-05-05 22:13 | 53.99510 | -40.08640 | 41111 ft | 523 kts | 86° |
| 2026-05-05 22:14 | 54.00514 | -39.96416 | 41140 ft | 524 kts | 78° |
| 2026-05-05 22:14 | 54.02250 | -39.84383 | 41118 ft | 523 kts | 78° |
| 2026-05-05 22:15 | 54.03962 | -39.72367 | 41129 ft | 522 kts | 78° |
| 2026-05-05 22:15 | 54.05658 | -39.60383 | 41129 ft | 521 kts | 78° |
| 2026-05-05 22:16 | 54.07339 | -39.48408 | 41128 ft | 520 kts | 78° |
| 2026-05-05 22:16 | 54.08998 | -39.36492 | 41127 ft | 520 kts | 78° |
| 2026-05-05 22:17 | 54.10653 | -39.24515 | 41131 ft | 519 kts | 78° |
| 2026-05-05 22:17 | 54.12301 | -39.12492 | 41125 ft | 520 kts | 78° |
| 2026-05-05 22:18 | 54.13935 | -39.00471 | 41138 ft | 520 kts | 79° |
| 2026-05-05 22:18 | 54.15560 | -38.88423 | 41136 ft | 521 kts | 79° |
| 2026-05-05 22:19 | 54.17170 | -38.76385 | 41134 ft | 519 kts | 79° |
| 2026-05-05 22:19 | 54.18753 | -38.64449 | 41133 ft | 517 kts | 79° |
| 2026-05-05 22:20 | 54.20330 | -38.52460 | 41130 ft | 518 kts | 79° |
| 2026-05-05 22:20 | 54.21901 | -38.40420 | 41134 ft | 519 kts | 79° |
| 2026-05-05 22:21 | 54.23463 | -38.28345 | 41132 ft | 521 kts | 79° |
| 2026-05-05 22:21 | 54.25018 | -38.16225 | 41139 ft | 521 kts | 79° |
| 2026-05-05 22:22 | 54.26559 | -38.04112 | 41137 ft | 520 kts | 79° |
| 2026-05-05 22:22 | 54.28071 | -37.92113 | 41136 ft | 520 kts | 79° |
| 2026-05-05 22:23 | 54.29588 | -37.79983 | 41142 ft | 521 kts | 79° |
| 2026-05-05 22:23 | 54.31091 | -37.67844 | 41141 ft | 521 kts | 79° |
| 2026-05-05 22:24 | 54.32584 | -37.55691 | 41141 ft | 521 kts | 79° |
| 2026-05-05 22:24 | 54.34063 | -37.43537 | 41140 ft | 520 kts | 80° |
| 2026-05-05 22:25 | 54.35529 | -37.31385 | 41143 ft | 520 kts | 80° |
| 2026-05-05 22:25 | 54.36981 | -37.19239 | 41134 ft | 520 kts | 80° |
| 2026-05-05 22:26 | 54.38410 | -37.07173 | 41138 ft | 518 kts | 80° |
| 2026-05-05 22:26 | 54.39834 | -36.95040 | 41137 ft | 519 kts | 80° |
| 2026-05-05 22:27 | 54.41247 | -36.82882 | 41136 ft | 519 kts | 80° |
| 2026-05-05 22:27 | 54.42650 | -36.70703 | 41133 ft | 520 kts | 80° |
| 2026-05-05 22:28 | 54.44046 | -36.58472 | 41133 ft | 521 kts | 80° |
| 2026-05-05 22:28 | 54.45425 | -36.46274 | 41134 ft | 520 kts | 80° |
| 2026-05-05 22:29 | 54.46791 | -36.34069 | 41130 ft | 519 kts | 81° |
| 2026-05-05 22:29 | 54.48136 | -36.21932 | 41136 ft | 520 kts | 81° |
| 2026-05-05 22:30 | 54.49478 | -36.09715 | 41132 ft | 519 kts | 81° |
| 2026-05-05 22:30 | 54.50806 | -35.97494 | 41130 ft | 519 kts | 81° |
| 2026-05-05 22:31 | 54.52122 | -35.85271 | 41132 ft | 519 kts | 81° |
| 2026-05-05 22:31 | 54.53426 | -35.73033 | 41130 ft | 519 kts | 81° |
| 2026-05-05 22:32 | 54.54716 | -35.60800 | 41127 ft | 519 kts | 81° |
| 2026-05-05 22:32 | 54.55985 | -35.48640 | 41124 ft | 518 kts | 81° |
| 2026-05-05 22:33 | 54.57250 | -35.36396 | 41128 ft | 518 kts | 81° |
| 2026-05-05 22:33 | 54.58502 | -35.24154 | 41128 ft | 518 kts | 81° |
| 2026-05-05 22:34 | 54.59742 | -35.11898 | 41128 ft | 518 kts | 81° |
| 2026-05-05 22:34 | 54.60969 | -34.99647 | 41127 ft | 518 kts | 81° |
| 2026-05-05 22:35 | 54.62183 | -34.87387 | 41132 ft | 518 kts | 81° |
| 2026-05-05 22:35 | 54.63379 | -34.75184 | 41133 ft | 518 kts | 81° |
| 2026-05-05 22:36 | 54.64567 | -34.62918 | 41132 ft | 518 kts | 82° |
| 2026-05-05 22:36 | 54.65547 | -34.52711 | 41133 ft | 518 kts | 82° |
| 2026-05-05 22:37 | 54.66715 | -34.40411 | 41133 ft | 518 kts | 82° |
| 2026-05-05 22:37 | 54.67868 | -34.28128 | 41140 ft | 518 kts | 82° |
| 2026-05-05 22:38 | 54.69010 | -34.15828 | 41145 ft | 518 kts | 82° |
| 2026-05-05 22:38 | 54.70139 | -34.03526 | 41137 ft | 518 kts | 82° |
| 2026-05-05 22:39 | 54.71257 | -33.91191 | 41139 ft | 519 kts | 82° |
| 2026-05-05 22:39 | 54.72362 | -33.78861 | 41148 ft | 519 kts | 82° |
| 2026-05-05 22:40 | 54.73450 | -33.66581 | 41149 ft | 519 kts | 82° |
| 2026-05-05 22:40 | 54.74534 | -33.54206 | 41148 ft | 519 kts | 82° |
| 2026-05-05 22:41 | 54.75601 | -33.41846 | 41157 ft | 519 kts | 82° |
| 2026-05-05 22:41 | 54.76659 | -33.29467 | 41156 ft | 519 kts | 83° |
| 2026-05-05 22:42 | 54.77702 | -33.17091 | 41162 ft | 518 kts | 83° |
| 2026-05-05 22:42 | 54.78732 | -33.04729 | 41161 ft | 517 kts | 83° |
| 2026-05-05 22:43 | 54.79742 | -32.92427 | 41168 ft | 518 kts | 83° |
| 2026-05-05 22:43 | 54.80746 | -32.80067 | 41168 ft | 517 kts | 83° |
| 2026-05-05 22:44 | 54.81736 | -32.67711 | 41167 ft | 518 kts | 83° |
| 2026-05-05 22:44 | 54.82715 | -32.55317 | 41175 ft | 519 kts | 83° |
| 2026-05-05 22:45 | 54.83682 | -32.42928 | 41180 ft | 518 kts | 83° |
| 2026-05-05 22:45 | 54.84636 | -32.30520 | 41181 ft | 519 kts | 83° |
| 2026-05-05 22:46 | 54.85579 | -32.18095 | 41194 ft | 519 kts | 83° |
| 2026-05-05 22:46 | 54.86503 | -32.05744 | 41194 ft | 518 kts | 83° |
| 2026-05-05 22:47 | 54.87416 | -31.93363 | 41194 ft | 517 kts | 83° |
| 2026-05-05 22:47 | 54.88318 | -31.80969 | 41198 ft | 517 kts | 83° |
| 2026-05-05 22:48 | 54.89206 | -31.68571 | 41204 ft | 517 kts | 83° |
| 2026-05-05 22:48 | 54.90081 | -31.56186 | 41208 ft | 517 kts | 83° |
| 2026-05-05 22:49 | 54.90944 | -31.43775 | 41208 ft | 517 kts | 83° |
| 2026-05-05 22:49 | 54.91794 | -31.31381 | 41217 ft | 515 kts | 83° |
| 2026-05-05 22:50 | 54.92627 | -31.19028 | 41216 ft | 515 kts | 83° |
| 2026-05-05 22:50 | 54.93450 | -31.06648 | 41216 ft | 516 kts | 83° |
| 2026-05-05 22:51 | 54.94255 | -30.94331 | 41218 ft | 515 kts | 83° |
| 2026-05-05 22:51 | 54.95053 | -30.81929 | 41220 ft | 515 kts | 83° |
| 2026-05-05 22:52 | 54.95839 | -30.69528 | 41227 ft | 515 kts | 83° |
| 2026-05-05 22:52 | 54.96611 | -30.57121 | 41226 ft | 515 kts | 83° |
| 2026-05-05 22:53 | 54.97370 | -30.44724 | 41225 ft | 515 kts | 83° |
| 2026-05-05 22:53 | 54.98116 | -30.32336 | 41232 ft | 514 kts | 83° |
| 2026-05-05 22:54 | 54.98845 | -30.20017 | 41237 ft | 516 kts | 83° |
| 2026-05-05 22:54 | 54.99570 | -30.07535 | 41241 ft | 518 kts | 83° |
| 2026-05-05 22:55 | 55.00684 | -29.95179 | 41245 ft | 516 kts | 75° |
| 2026-05-05 22:55 | 55.02441 | -29.83038 | 41247 ft | 516 kts | 75° |
| 2026-05-05 22:56 | 55.04150 | -29.70945 | 41250 ft | 516 kts | 75° |
| 2026-05-05 22:56 | 55.05868 | -29.58786 | 41245 ft | 516 kts | 75° |
| 2026-05-05 22:57 | 55.07570 | -29.46607 | 41249 ft | 516 kts | 75° |
| 2026-05-05 22:57 | 55.09260 | -29.34425 | 41250 ft | 517 kts | 75° |
| 2026-05-05 22:58 | 55.10941 | -29.22211 | 41248 ft | 517 kts | 75° |
| 2026-05-05 22:58 | 55.12609 | -29.09988 | 41249 ft | 517 kts | 75° |
| 2026-05-05 22:59 | 55.14266 | -28.97749 | 41252 ft | 517 kts | 75° |
| 2026-05-05 22:59 | 55.15909 | -28.85508 | 41250 ft | 517 kts | 75° |
| 2026-05-05 23:00 | 55.18344 | -28.67185 | 41251 ft | 517 kts | 76° |
| 2026-05-05 23:00 | 55.19955 | -28.54930 | 41245 ft | 515 kts | 75° |
| 2026-05-05 23:01 | 55.21551 | -28.42696 | 41244 ft | 515 kts | 75° |
| 2026-05-05 23:01 | 55.23131 | -28.30475 | 41243 ft | 514 kts | 76° |
| 2026-05-05 23:02 | 55.24699 | -28.18244 | 41238 ft | 514 kts | 76° |
| 2026-05-05 23:02 | 55.26243 | -28.06088 | 41245 ft | 514 kts | 75° |
| 2026-05-05 23:03 | 55.27787 | -27.93833 | 41246 ft | 514 kts | 76° |
| 2026-05-05 23:03 | 55.29319 | -27.81565 | 41246 ft | 514 kts | 76° |
| 2026-05-05 23:04 | 55.30833 | -27.69341 | 41248 ft | 515 kts | 76° |
| 2026-05-05 23:04 | 55.32339 | -27.57069 | 41246 ft | 515 kts | 76° |
| 2026-05-05 23:05 | 55.33835 | -27.44767 | 41231 ft | 515 kts | 76° |
| 2026-05-05 23:05 | 55.35317 | -27.32463 | 41231 ft | 514 kts | 76° |
| 2026-05-05 23:06 | 55.36785 | -27.20174 | 41227 ft | 513 kts | 76° |
| 2026-05-05 23:06 | 55.38238 | -27.07893 | 41220 ft | 513 kts | 76° |
| 2026-05-05 23:07 | 55.39679 | -26.95601 | 41230 ft | 513 kts | 76° |
| 2026-05-05 23:07 | 55.41103 | -26.83341 | 41235 ft | 515 kts | 76° |
| 2026-05-05 23:08 | 55.42525 | -26.70985 | 41237 ft | 516 kts | 76° |
| 2026-05-05 23:08 | 55.43940 | -26.58573 | 41233 ft | 516 kts | 76° |
| 2026-05-05 23:09 | 55.45339 | -26.46175 | 41237 ft | 515 kts | 76° |
| 2026-05-05 23:09 | 55.46723 | -26.33793 | 41225 ft | 514 kts | 76° |
| 2026-05-05 23:10 | 55.48095 | -26.21402 | 41223 ft | 514 kts | 76° |
| 2026-05-05 23:10 | 55.49443 | -26.09102 | 41223 ft | 514 kts | 76° |
| 2026-05-05 23:11 | 55.50789 | -25.96703 | 41219 ft | 514 kts | 77° |
| 2026-05-05 23:11 | 55.52122 | -25.84303 | 41219 ft | 514 kts | 76° |
| 2026-05-05 23:12 | 55.53443 | -25.71883 | 41218 ft | 516 kts | 77° |
| 2026-05-05 23:12 | 55.54756 | -25.59411 | 41220 ft | 517 kts | 77° |
| 2026-05-05 23:13 | 55.56056 | -25.46930 | 41222 ft | 518 kts | 77° |
| 2026-05-05 23:13 | 55.57338 | -25.34498 | 41222 ft | 516 kts | 77° |
| 2026-05-05 23:14 | 55.58614 | -25.21995 | 41211 ft | 516 kts | 77° |
| 2026-05-05 23:14 | 55.59876 | -25.09500 | 41195 ft | 516 kts | 77° |
| 2026-05-05 23:15 | 55.61124 | -24.97006 | 41206 ft | 516 kts | 77° |
| 2026-05-05 23:15 | 55.62359 | -24.84503 | 41200 ft | 515 kts | 77° |
| 2026-05-05 23:16 | 55.63582 | -24.71991 | 41202 ft | 516 kts | 77° |
| 2026-05-05 23:16 | 55.64794 | -24.59446 | 41200 ft | 517 kts | 77° |
| 2026-05-05 23:17 | 55.65994 | -24.46890 | 41206 ft | 518 kts | 77° |
| 2026-05-05 23:17 | 55.67177 | -24.34364 | 41204 ft | 518 kts | 77° |
| 2026-05-05 23:18 | 55.68351 | -24.21796 | 41206 ft | 516 kts | 78° |
| 2026-05-05 23:18 | 55.69514 | -24.09199 | 41206 ft | 517 kts | 78° |
| 2026-05-05 23:19 | 55.70663 | -23.96601 | 41204 ft | 518 kts | 78° |
| 2026-05-05 23:19 | 55.71802 | -23.83973 | 41206 ft | 518 kts | 78° |
| 2026-05-05 23:20 | 55.72923 | -23.71400 | 41206 ft | 519 kts | 78° |
| 2026-05-05 23:20 | 55.74038 | -23.58724 | 41205 ft | 520 kts | 78° |
| 2026-05-05 23:21 | 55.75142 | -23.46031 | 41203 ft | 519 kts | 78° |
| 2026-05-05 23:21 | 55.76226 | -23.33404 | 41201 ft | 517 kts | 78° |
| 2026-05-05 23:22 | 55.77296 | -23.20781 | 41193 ft | 515 kts | 78° |
| 2026-05-05 23:22 | 55.78352 | -23.08178 | 41215 ft | 517 kts | 78° |
| 2026-05-05 23:23 | 55.79222 | -22.97661 | 41206 ft | 518 kts | 78° |
| 2026-05-05 23:23 | 55.80258 | -22.84982 | 41208 ft | 518 kts | 78° |
| 2026-05-05 23:24 | 55.81448 | -22.70222 | 41205 ft | 519 kts | 79° |
| 2026-05-05 23:24 | 55.82296 | -22.59561 | 41199 ft | 519 kts | 79° |
| 2026-05-05 23:25 | 55.83289 | -22.46920 | 41196 ft | 520 kts | 79° |
| 2026-05-05 23:25 | 55.84277 | -22.34164 | 41196 ft | 520 kts | 79° |
| 2026-05-05 23:26 | 55.85254 | -22.21378 | 41198 ft | 521 kts | 79° |
| 2026-05-05 23:26 | 55.86216 | -22.08602 | 41205 ft | 521 kts | 79° |
| 2026-05-05 23:27 | 55.87167 | -21.95805 | 41205 ft | 521 kts | 79° |
| 2026-05-05 23:27 | 55.88099 | -21.83074 | 41200 ft | 522 kts | 79° |
| 2026-05-05 23:28 | 55.89024 | -21.70243 | 41200 ft | 521 kts | 79° |
| 2026-05-05 23:28 | 55.89934 | -21.57431 | 41198 ft | 521 kts | 80° |
| 2026-05-05 23:29 | 55.90830 | -21.44621 | 41196 ft | 520 kts | 80° |
| 2026-05-05 23:29 | 55.91713 | -21.31814 | 41198 ft | 521 kts | 80° |
| 2026-05-05 23:30 | 55.92584 | -21.18970 | 41201 ft | 522 kts | 80° |
| 2026-05-05 23:30 | 55.93443 | -21.06103 | 41203 ft | 523 kts | 80° |
| 2026-05-05 23:31 | 55.94289 | -20.93216 | 41206 ft | 523 kts | 80° |
| 2026-05-05 23:31 | 55.95123 | -20.80319 | 41220 ft | 523 kts | 81° |
| 2026-05-05 23:32 | 55.95945 | -20.67376 | 41200 ft | 524 kts | 81° |
| 2026-05-05 23:32 | 55.96748 | -20.54522 | 41200 ft | 524 kts | 81° |
| 2026-05-05 23:33 | 55.97542 | -20.41596 | 41199 ft | 523 kts | 81° |
| 2026-05-05 23:33 | 55.98322 | -20.28654 | 41197 ft | 523 kts | 81° |
| 2026-05-05 23:34 | 55.99090 | -20.15713 | 41201 ft | 524 kts | 81° |
| 2026-05-05 23:34 | 55.99842 | -20.02782 | 41198 ft | 524 kts | 81° |
| 2026-05-05 23:35 | 56.00198 | -19.89754 | 41199 ft | 526 kts | 85° |
| 2026-05-05 23:35 | 56.00456 | -19.76688 | 41201 ft | 526 kts | 85° |
| 2026-05-05 23:36 | 56.00683 | -19.63592 | 41217 ft | 527 kts | 85° |
| 2026-05-05 23:36 | 56.00904 | -19.50570 | 41201 ft | 528 kts | 85° |
| 2026-05-05 23:37 | 56.01109 | -19.37443 | 41192 ft | 528 kts | 86° |
| 2026-05-05 23:37 | 56.01301 | -19.24336 | 41187 ft | 527 kts | 86° |
| 2026-05-05 23:38 | 56.01479 | -19.11233 | 41185 ft | 527 kts | 86° |
| 2026-05-05 23:38 | 56.01642 | -18.98206 | 41194 ft | 527 kts | 86° |
| 2026-05-05 23:39 | 56.01792 | -18.85094 | 41192 ft | 528 kts | 86° |
| 2026-05-05 23:39 | 56.01929 | -18.71974 | 41192 ft | 528 kts | 86° |
| 2026-05-05 23:40 | 56.02052 | -18.58840 | 41181 ft | 528 kts | 86° |
| 2026-05-05 23:40 | 56.02160 | -18.45733 | 41182 ft | 528 kts | 86° |
| 2026-05-05 23:41 | 56.02255 | -18.32585 | 41180 ft | 529 kts | 87° |
| 2026-05-05 23:41 | 56.02336 | -18.19408 | 41172 ft | 530 kts | 87° |
| 2026-05-05 23:42 | 56.02403 | -18.06222 | 41178 ft | 531 kts | 87° |
| 2026-05-05 23:42 | 56.02456 | -17.93026 | 41176 ft | 531 kts | 87° |
| 2026-05-05 23:43 | 56.02494 | -17.79851 | 41174 ft | 529 kts | 87° |
| 2026-05-05 23:43 | 56.02519 | -17.66797 | 41163 ft | 527 kts | 87° |
| 2026-05-05 23:44 | 56.02530 | -17.53698 | 41159 ft | 527 kts | 87° |
| 2026-05-05 23:44 | 56.02527 | -17.40575 | 41162 ft | 528 kts | 88° |
| 2026-05-05 23:45 | 56.02510 | -17.27414 | 41182 ft | 530 kts | 88° |
| 2026-05-05 23:45 | 56.02479 | -17.14189 | 41169 ft | 532 kts | 88° |
| 2026-05-05 23:46 | 56.02433 | -17.00967 | 41163 ft | 530 kts | 88° |
| 2026-05-05 23:46 | 56.02374 | -16.87790 | 41160 ft | 529 kts | 88° |
| 2026-05-05 23:47 | 56.02301 | -16.74742 | 41158 ft | 528 kts | 88° |
| 2026-05-05 23:47 | 56.02215 | -16.61599 | 41157 ft | 529 kts | 88° |
| 2026-05-05 23:48 | 56.02113 | -16.48427 | 41161 ft | 531 kts | 88° |
| 2026-05-05 23:48 | 56.01998 | -16.35218 | 41153 ft | 531 kts | 88° |
| 2026-05-05 23:49 | 56.01868 | -16.22031 | 41143 ft | 529 kts | 88° |
| 2026-05-05 23:49 | 56.01725 | -16.08887 | 41144 ft | 528 kts | 89° |
| 2026-05-05 23:50 | 56.01568 | -15.95734 | 41160 ft | 531 kts | 89° |
| 2026-05-05 23:50 | 56.01396 | -15.82497 | 41159 ft | 533 kts | 89° |
| 2026-05-05 23:51 | 56.01210 | -15.69339 | 41153 ft | 531 kts | 89° |
| 2026-05-05 23:51 | 56.01011 | -15.56165 | 41152 ft | 530 kts | 89° |
| 2026-05-05 23:52 | 56.00797 | -15.43012 | 41152 ft | 529 kts | 89° |
| 2026-05-05 23:52 | 56.00570 | -15.29868 | 41147 ft | 529 kts | 89° |
| 2026-05-05 23:53 | 56.00329 | -15.16708 | 41156 ft | 531 kts | 90° |
| 2026-05-05 23:53 | 56.00072 | -15.03518 | 41156 ft | 532 kts | 90° |
| 2026-05-05 23:54 | 56.00062 | -14.90303 | 41153 ft | 532 kts | 88° |
| 2026-05-05 23:54 | 56.00058 | -14.77081 | 41151 ft | 531 kts | 87° |
| 2026-05-05 23:55 | 56.00104 | -14.63897 | 41148 ft | 530 kts | 88° |
| 2026-05-05 23:55 | 56.00098 | -14.50729 | 41145 ft | 529 kts | 88° |
| 2026-05-05 23:56 | 56.00099 | -14.37672 | 41129 ft | 528 kts | 88° |
| 2026-05-05 23:56 | 56.00076 | -14.24568 | 41152 ft | 528 kts | 88° |
| 2026-05-05 23:57 | 56.00043 | -14.11404 | 41153 ft | 531 kts | 88° |
| 2026-05-05 23:57 | 55.99616 | -13.98243 | 41175 ft | 533 kts | 102° |
| 2026-05-05 23:58 | 55.97526 | -13.85492 | 41152 ft | 535 kts | 106° |
| 2026-05-05 23:58 | 55.95325 | -13.72814 | 41153 ft | 534 kts | 106° |
| 2026-05-05 23:59 | 55.93137 | -13.60154 | 41149 ft | 534 kts | 106° |
| 2026-05-05 23:59 | 55.90917 | -13.47503 | 41153 ft | 534 kts | 106° |
| 2026-05-06 00:00 | 55.88706 | -13.34929 | 41153 ft | 534 kts | 106° |
| 2026-05-06 00:00 | 55.86463 | -13.22294 | 41155 ft | 535 kts | 107° |
| 2026-05-06 00:01 | 55.84213 | -13.09689 | 41140 ft | 533 kts | 107° |
| 2026-05-06 00:01 | 55.81952 | -12.97118 | 41151 ft | 533 kts | 107° |
| 2026-05-06 00:02 | 55.79678 | -12.84557 | 41150 ft | 534 kts | 107° |
| 2026-05-06 00:02 | 55.77402 | -12.72071 | 41154 ft | 534 kts | 107° |
| 2026-05-06 00:03 | 55.75097 | -12.59508 | 41151 ft | 535 kts | 107° |
| 2026-05-06 00:03 | 55.72776 | -12.46947 | 41151 ft | 535 kts | 107° |
| 2026-05-06 00:04 | 55.70443 | -12.34404 | 41146 ft | 535 kts | 108° |
| 2026-05-06 00:04 | 55.68099 | -12.21881 | 41132 ft | 532 kts | 108° |
| 2026-05-06 00:05 | 55.64582 | -12.03252 | 41140 ft | 532 kts | 108° |
| 2026-05-06 00:06 | 55.62219 | -11.90835 | 41147 ft | 533 kts | 108° |
| 2026-05-06 00:06 | 55.60238 | -11.80488 | 41150 ft | 534 kts | 108° |
| 2026-05-06 00:07 | 55.57450 | -11.66024 | 41154 ft | 535 kts | 108° |
| 2026-05-06 00:07 | 55.55031 | -11.53556 | 41154 ft | 535 kts | 108° |
| 2026-05-06 00:08 | 55.53015 | -11.43232 | 41153 ft | 533 kts | 109° |
| 2026-05-06 00:08 | 55.50592 | -11.30888 | 41148 ft | 532 kts | 109° |
| 2026-05-06 00:09 | 55.48161 | -11.18587 | 41149 ft | 531 kts | 109° |
| 2026-05-06 00:09 | 55.45717 | -11.06298 | 41151 ft | 532 kts | 109° |
| 2026-05-06 00:10 | 55.43252 | -10.93974 | 41156 ft | 533 kts | 109° |
| 2026-05-06 00:10 | 55.40771 | -10.81652 | 41158 ft | 535 kts | 109° |
| 2026-05-06 00:11 | 55.38273 | -10.69323 | 41158 ft | 534 kts | 109° |
| 2026-05-06 00:11 | 55.35768 | -10.57037 | 41155 ft | 532 kts | 109° |
| 2026-05-06 00:12 | 55.33275 | -10.44883 | 41135 ft | 531 kts | 110° |
| 2026-05-06 00:12 | 55.30761 | -10.32704 | 41141 ft | 529 kts | 110° |
| 2026-05-06 00:13 | 55.28238 | -10.20553 | 41139 ft | 530 kts | 110° |
| 2026-05-06 00:13 | 55.25698 | -10.08392 | 41140 ft | 531 kts | 110° |
| 2026-05-06 00:14 | 55.22405 | -9.96873 | 41176 ft | 530 kts | 129° |
| 2026-05-06 00:14 | 55.17727 | -9.86978 | 41144 ft | 529 kts | 131° |
| 2026-05-06 00:15 | 55.12984 | -9.77150 | 41133 ft | 528 kts | 130° |
| 2026-05-06 00:15 | 55.08264 | -9.67321 | 41135 ft | 526 kts | 131° |
| 2026-05-06 00:16 | 55.03526 | -9.57558 | 41138 ft | 527 kts | 131° |
| 2026-05-06 00:16 | 54.98785 | -9.47786 | 41141 ft | 528 kts | 131° |
| 2026-05-06 00:17 | 54.94020 | -9.38029 | 41139 ft | 530 kts | 131° |
| 2026-05-06 00:17 | 54.89240 | -9.28265 | 41122 ft | 529 kts | 131° |
| 2026-05-06 00:18 | 54.84500 | -9.18630 | 41131 ft | 525 kts | 131° |
| 2026-05-06 00:18 | 54.79751 | -9.09011 | 41120 ft | 526 kts | 131° |
| 2026-05-06 00:19 | 54.74972 | -8.99370 | 41124 ft | 527 kts | 131° |
| 2026-05-06 00:19 | 54.70186 | -8.89754 | 41124 ft | 528 kts | 131° |
| 2026-05-06 00:20 | 54.65409 | -8.80192 | 41115 ft | 527 kts | 131° |
| 2026-05-06 00:20 | 54.60620 | -8.70646 | 41114 ft | 524 kts | 132° |
| 2026-05-06 00:21 | 54.55837 | -8.61148 | 41122 ft | 525 kts | 132° |
| 2026-05-06 00:21 | 54.51029 | -8.51638 | 41121 ft | 526 kts | 132° |
| 2026-05-06 00:22 | 54.46218 | -8.42150 | 41121 ft | 527 kts | 130° |
| 2026-05-06 00:22 | 54.42210 | -8.31623 | 41122 ft | 527 kts | 121° |
| 2026-05-06 00:23 | 54.38454 | -8.20897 | 41124 ft | 526 kts | 122° |
| 2026-05-06 00:23 | 54.34648 | -8.10181 | 41115 ft | 526 kts | 122° |
| 2026-05-06 00:24 | 54.30850 | -7.99469 | 41124 ft | 526 kts | 122° |
| 2026-05-06 00:24 | 54.27037 | -7.88799 | 41111 ft | 524 kts | 122° |
| 2026-05-06 00:25 | 54.23233 | -7.78181 | 41102 ft | 523 kts | 122° |
| 2026-05-06 00:25 | 54.19422 | -7.67598 | 41096 ft | 523 kts | 122° |
| 2026-05-06 00:26 | 54.15591 | -7.57000 | 41099 ft | 525 kts | 122° |
| 2026-05-06 00:26 | 54.11745 | -7.46406 | 41102 ft | 526 kts | 122° |
| 2026-05-06 00:27 | 54.07877 | -7.35799 | 41096 ft | 526 kts | 122° |
| 2026-05-06 00:27 | 54.04019 | -7.25265 | 41095 ft | 524 kts | 123° |
| 2026-05-06 00:28 | 54.00181 | -7.14827 | 41078 ft | 523 kts | 123° |
| 2026-05-06 00:28 | 53.96325 | -7.04385 | 41075 ft | 521 kts | 123° |
| 2026-05-06 00:29 | 53.92474 | -6.94000 | 41074 ft | 523 kts | 123° |
| 2026-05-06 00:29 | 53.89168 | -6.82962 | 41088 ft | 525 kts | 114° |
| 2026-05-06 00:30 | 53.86235 | -6.71579 | 41088 ft | 528 kts | 114° |
| 2026-05-06 00:30 | 53.83257 | -6.60217 | 41087 ft | 527 kts | 114° |
| 2026-05-06 00:31 | 53.80292 | -6.48880 | 41068 ft | 525 kts | 114° |
| 2026-05-06 00:31 | 53.77326 | -6.37642 | 41059 ft | 523 kts | 115° |
| 2026-05-06 00:32 | 53.74373 | -6.26484 | 41058 ft | 524 kts | 115° |
| 2026-05-06 00:32 | 53.71384 | -6.15257 | 41056 ft | 523 kts | 115° |
| 2026-05-06 00:33 | 53.68391 | -6.04065 | 41055 ft | 522 kts | 115° |
| 2026-05-06 00:33 | 53.65393 | -5.92910 | 41050 ft | 521 kts | 115° |
| 2026-05-06 00:34 | 53.62387 | -5.81780 | 41055 ft | 523 kts | 115° |
| 2026-05-06 00:34 | 53.59358 | -5.70619 | 41051 ft | 524 kts | 115° |
| 2026-05-06 00:35 | 53.56332 | -5.59524 | 41051 ft | 525 kts | 115° |
| 2026-05-06 00:35 | 53.53864 | -5.48020 | 41080 ft | 525 kts | 98° |
| 2026-05-06 00:36 | 53.53365 | -5.35747 | 41067 ft | 527 kts | 92° |
| 2026-05-06 00:36 | 53.53079 | -5.23444 | 41066 ft | 526 kts | 92° |
| 2026-05-06 00:37 | 53.52737 | -5.11180 | 41060 ft | 524 kts | 93° |
| 2026-05-06 00:37 | 53.52340 | -4.98962 | 41059 ft | 523 kts | 93° |
| 2026-05-06 00:38 | 53.51950 | -4.86729 | 41060 ft | 524 kts | 93° |
| 2026-05-06 00:38 | 53.51542 | -4.74546 | 41060 ft | 526 kts | 93° |
| 2026-05-06 00:39 | 53.51125 | -4.62265 | 41056 ft | 527 kts | 93° |
| 2026-05-06 00:39 | 53.50693 | -4.49995 | 41058 ft | 525 kts | 94° |
| 2026-05-06 00:40 | 53.50251 | -4.37763 | 41052 ft | 524 kts | 94° |
| 2026-05-06 00:40 | 53.49797 | -4.25555 | 41048 ft | 523 kts | 94° |